USY523 FZAA-LFPG
Flight info
| Callsign | USY523 |
|---|---|
| Flight time | 7h 44m |
| Altitude | 35000 |
| Route | BZ4A BZ UA410 EVIBO DCT KISDU/N0477F360 UM731 FL UA607 DIR UB730 DJA UA605 CSO/N0461F380 UM998 KAMER DCT NAFOQ DCT SURJU DCT PADKO DCT MRM DCT MTL DCT ETREK DCT RUSIT DCT BULOL DCT LOGNI DCT MOKIP DCT ARFOZ DCT TINIL |
| Aircraft | A343/H-SDE2E3FGHIJ4J5M1RWXY/LB1D1 |
Departure
| Time | 2026-05-08 14:10 |
|---|---|
| Airport | Ndjili International Airport (FZAA) |
Arrival
| Time | 2026-05-08 21:55 |
|---|---|
| Airport | Charles de Gaulle International Airport (LFPG) |
| Time | Latitude | Longitude | Altitude | Speed | Heading |
|---|---|---|---|---|---|
| 2026-05-08 12:56 | -4.38944 | 15.44300 | 1036 ft | 0 kts | 147° |
| 2026-05-08 12:58 | -4.38947 | 15.44302 | 1036 ft | 0 kts | 147° |
| 2026-05-08 13:21 | -4.38948 | 15.44303 | 1036 ft | 0 kts | 147° |
| 2026-05-08 13:22 | -4.38947 | 15.44302 | 1036 ft | 0 kts | 147° |
| 2026-05-08 13:22 | -4.38948 | 15.44303 | 1036 ft | 0 kts | 147° |
| 2026-05-08 13:25 | -4.38947 | 15.44302 | 1036 ft | 0 kts | 147° |
| 2026-05-08 13:43 | -4.38948 | 15.44303 | 1036 ft | 0 kts | 147° |
| 2026-05-08 13:49 | -4.38948 | 15.44302 | 1036 ft | 0 kts | 147° |
| 2026-05-08 13:49 | -4.38947 | 15.44302 | 1036 ft | 0 kts | 147° |
| 2026-05-08 13:58 | -4.38937 | 15.44296 | 1036 ft | 3 kts | 146° |
| 2026-05-08 13:59 | -4.38919 | 15.44278 | 1035 ft | 4 kts | 107° |
| 2026-05-08 13:59 | -4.38919 | 15.44254 | 1035 ft | 4 kts | 66° |
| 2026-05-08 13:59 | -4.38932 | 15.44230 | 1033 ft | 4 kts | 55° |
| 2026-05-08 13:59 | -4.38939 | 15.44220 | 1033 ft | 1 kts | 57° |
| 2026-05-08 14:01 | -4.38940 | 15.44220 | 1034 ft | 0 kts | 57° |
| 2026-05-08 14:03 | -4.38939 | 15.44220 | 1034 ft | 0 kts | 57° |
| 2026-05-08 14:03 | -4.38934 | 15.44227 | 1033 ft | 3 kts | 56° |
| 2026-05-08 14:04 | -4.38919 | 15.44251 | 1034 ft | 5 kts | 55° |
| 2026-05-08 14:04 | -4.38896 | 15.44285 | 1036 ft | 7 kts | 57° |
| 2026-05-08 14:04 | -4.38856 | 15.44346 | 1037 ft | 14 kts | 57° |
| 2026-05-08 14:04 | -4.38794 | 15.44442 | 1037 ft | 17 kts | 58° |
| 2026-05-08 14:05 | -4.38734 | 15.44539 | 1035 ft | 16 kts | 58° |
| 2026-05-08 14:05 | -4.38674 | 15.44631 | 1037 ft | 15 kts | 57° |
| 2026-05-08 14:05 | -4.38618 | 15.44719 | 1034 ft | 15 kts | 57° |
| 2026-05-08 14:05 | -4.38553 | 15.44820 | 1030 ft | 18 kts | 57° |
| 2026-05-08 14:06 | -4.38492 | 15.44910 | 1030 ft | 13 kts | 45° |
| 2026-05-08 14:06 | -4.38425 | 15.44898 | 1030 ft | 9 kts | 327° |
| 2026-05-08 14:06 | -4.38368 | 15.44861 | 1032 ft | 12 kts | 327° |
| 2026-05-08 14:06 | -4.38283 | 15.44871 | 1028 ft | 15 kts | 48° |
| 2026-05-08 14:07 | -4.38213 | 15.44976 | 1025 ft | 21 kts | 57° |
| 2026-05-08 14:07 | -4.38129 | 15.45106 | 1028 ft | 23 kts | 57° |
| 2026-05-08 14:07 | -4.38034 | 15.45252 | 1025 ft | 27 kts | 57° |
| 2026-05-08 14:07 | -4.37930 | 15.45411 | 1028 ft | 27 kts | 57° |
| 2026-05-08 14:08 | -4.37845 | 15.45558 | 1025 ft | 22 kts | 70° |
| 2026-05-08 14:08 | -4.37826 | 15.45690 | 1027 ft | 16 kts | 81° |
| 2026-05-08 14:08 | -4.37772 | 15.45738 | 1025 ft | 9 kts | 351° |
| 2026-05-08 14:08 | -4.37753 | 15.45701 | 1024 ft | 4 kts | 248° |
| 2026-05-08 14:09 | -4.37774 | 15.45672 | 1023 ft | 10 kts | 234° |
| 2026-05-08 14:09 | -4.37899 | 15.45482 | 1029 ft | 57 kts | 237° |
| 2026-05-08 14:09 | -4.38206 | 15.45009 | 1025 ft | 103 kts | 236° |
| 2026-05-08 14:09 | -4.38669 | 15.44288 | 1035 ft | 141 kts | 237° |
| 2026-05-08 14:10 | -4.39266 | 15.43371 | 1095 ft | 168 kts | 234° |
| 2026-05-08 14:10 | -4.39877 | 15.42392 | 1629 ft | 163 kts | 237° |
| 2026-05-08 14:10 | -4.40441 | 15.41413 | 2053 ft | 167 kts | 239° |
| 2026-05-08 14:10 | -4.41048 | 15.40368 | 2297 ft | 180 kts | 238° |
| 2026-05-08 14:11 | -4.41760 | 15.39265 | 2472 ft | 196 kts | 238° |
| 2026-05-08 14:11 | -4.42503 | 15.38086 | 2814 ft | 204 kts | 237° |
| 2026-05-08 14:11 | -4.43270 | 15.36865 | 3253 ft | 209 kts | 238° |
| 2026-05-08 14:11 | -4.43960 | 15.35531 | 3484 ft | 227 kts | 252° |
| 2026-05-08 14:12 | -4.44099 | 15.33905 | 3685 ft | 247 kts | 282° |
| 2026-05-08 14:12 | -4.43230 | 15.32387 | 3988 ft | 261 kts | 319° |
| 2026-05-08 14:12 | -4.41675 | 15.31396 | 4467 ft | 269 kts | 326° |
| 2026-05-08 14:12 | -4.40087 | 15.30352 | 5023 ft | 274 kts | 328° |
| 2026-05-08 14:13 | -4.38443 | 15.29414 | 5621 ft | 277 kts | 333° |
| 2026-05-08 14:13 | -4.36680 | 15.28593 | 6213 ft | 281 kts | 338° |
| 2026-05-08 14:13 | -4.34820 | 15.27931 | 6753 ft | 285 kts | 343° |
| 2026-05-08 14:13 | -4.32901 | 15.27402 | 7314 ft | 288 kts | 343° |
| 2026-05-08 14:14 | -4.31012 | 15.26696 | 7887 ft | 290 kts | 337° |
| 2026-05-08 14:14 | -4.29148 | 15.25898 | 8477 ft | 293 kts | 339° |
| 2026-05-08 14:14 | -4.27197 | 15.25306 | 9069 ft | 294 kts | 349° |
| 2026-05-08 14:14 | -4.25146 | 15.25119 | 9628 ft | 296 kts | 3° |
| 2026-05-08 14:15 | -4.23107 | 15.25419 | 10135 ft | 299 kts | 15° |
| 2026-05-08 14:15 | -4.21070 | 15.26034 | 10390 ft | 312 kts | 20° |
| 2026-05-08 14:15 | -4.18999 | 15.26834 | 10628 ft | 325 kts | 23° |
| 2026-05-08 14:15 | -4.16897 | 15.27716 | 10864 ft | 337 kts | 24° |
| 2026-05-08 14:16 | -4.14686 | 15.28652 | 11095 ft | 350 kts | 23° |
| 2026-05-08 14:16 | -4.12393 | 15.29599 | 11315 ft | 361 kts | 23° |
| 2026-05-08 14:16 | -4.10018 | 15.30553 | 11551 ft | 372 kts | 22° |
| 2026-05-08 14:16 | -4.07590 | 15.31506 | 11886 ft | 378 kts | 22° |
| 2026-05-08 14:17 | -4.05120 | 15.32462 | 12277 ft | 382 kts | 22° |
| 2026-05-08 14:17 | -4.02632 | 15.33418 | 12690 ft | 385 kts | 22° |
| 2026-05-08 14:17 | -4.00147 | 15.34372 | 13123 ft | 388 kts | 22° |
| 2026-05-08 14:17 | -3.97593 | 15.35353 | 13558 ft | 390 kts | 22° |
| 2026-05-08 14:18 | -3.95081 | 15.36319 | 13967 ft | 392 kts | 22° |
| 2026-05-08 14:18 | -3.92520 | 15.37305 | 14393 ft | 394 kts | 22° |
| 2026-05-08 14:18 | -3.89946 | 15.38297 | 14793 ft | 397 kts | 22° |
| 2026-05-08 14:18 | -3.87366 | 15.39292 | 15176 ft | 399 kts | 22° |
| 2026-05-08 14:19 | -3.84795 | 15.40284 | 15584 ft | 401 kts | 22° |
| 2026-05-08 14:19 | -3.82146 | 15.41305 | 15996 ft | 403 kts | 22° |
| 2026-05-08 14:19 | -3.79558 | 15.42303 | 16394 ft | 405 kts | 22° |
| 2026-05-08 14:19 | -3.76913 | 15.43323 | 16790 ft | 408 kts | 22° |
| 2026-05-08 14:20 | -3.74260 | 15.44346 | 17191 ft | 410 kts | 22° |
| 2026-05-08 14:20 | -3.71585 | 15.45377 | 17587 ft | 412 kts | 22° |
| 2026-05-08 14:20 | -3.68898 | 15.46413 | 17994 ft | 415 kts | 22° |
| 2026-05-08 14:20 | -3.66187 | 15.47458 | 18343 ft | 417 kts | 22° |
| 2026-05-08 14:21 | -3.63475 | 15.48504 | 18677 ft | 420 kts | 22° |
| 2026-05-08 14:21 | -3.60737 | 15.49559 | 19006 ft | 422 kts | 22° |
| 2026-05-08 14:21 | -3.57979 | 15.50622 | 19324 ft | 425 kts | 22° |
| 2026-05-08 14:21 | -3.55239 | 15.51678 | 19651 ft | 427 kts | 22° |
| 2026-05-08 14:22 | -3.52447 | 15.52754 | 19958 ft | 430 kts | 22° |
| 2026-05-08 14:22 | -3.49644 | 15.53834 | 20280 ft | 432 kts | 22° |
| 2026-05-08 14:22 | -3.46832 | 15.54917 | 20585 ft | 434 kts | 22° |
| 2026-05-08 14:22 | -3.43998 | 15.56009 | 20888 ft | 436 kts | 22° |
| 2026-05-08 14:23 | -3.41150 | 15.57106 | 21231 ft | 439 kts | 21° |
| 2026-05-08 14:23 | -3.38292 | 15.58207 | 21712 ft | 443 kts | 22° |
| 2026-05-08 14:23 | -3.35444 | 15.59312 | 22113 ft | 445 kts | 22° |
| 2026-05-08 14:23 | -3.32503 | 15.60449 | 22385 ft | 448 kts | 22° |
| 2026-05-08 14:24 | -3.29591 | 15.61569 | 22648 ft | 451 kts | 21° |
| 2026-05-08 14:24 | -3.26683 | 15.62686 | 22890 ft | 454 kts | 22° |
| 2026-05-08 14:24 | -3.23731 | 15.63820 | 23168 ft | 456 kts | 21° |
| 2026-05-08 14:24 | -3.20758 | 15.64962 | 23433 ft | 458 kts | 21° |
| 2026-05-08 14:25 | -3.17771 | 15.66111 | 23666 ft | 461 kts | 21° |
| 2026-05-08 14:25 | -3.14770 | 15.67266 | 23922 ft | 462 kts | 22° |
| 2026-05-08 14:25 | -3.11769 | 15.68421 | 24158 ft | 464 kts | 21° |
| 2026-05-08 14:25 | -3.08739 | 15.69587 | 24394 ft | 466 kts | 22° |
| 2026-05-08 14:26 | -3.05741 | 15.70741 | 24619 ft | 467 kts | 22° |
| 2026-05-08 14:26 | -3.02703 | 15.71910 | 24842 ft | 469 kts | 22° |
| 2026-05-08 14:26 | -2.99642 | 15.73089 | 25079 ft | 471 kts | 22° |
| 2026-05-08 14:26 | -2.96566 | 15.74273 | 25318 ft | 472 kts | 21° |
| 2026-05-08 14:27 | -2.93489 | 15.75457 | 25539 ft | 474 kts | 22° |
| 2026-05-08 14:27 | -2.90410 | 15.76642 | 25800 ft | 475 kts | 21° |
| 2026-05-08 14:27 | -2.87358 | 15.77817 | 26034 ft | 476 kts | 21° |
| 2026-05-08 14:27 | -2.84254 | 15.79011 | 26260 ft | 478 kts | 21° |
| 2026-05-08 14:28 | -2.81145 | 15.80207 | 26475 ft | 480 kts | 21° |
| 2026-05-08 14:28 | -2.78012 | 15.81412 | 26694 ft | 481 kts | 22° |
| 2026-05-08 14:28 | -2.74882 | 15.82617 | 26923 ft | 483 kts | 21° |
| 2026-05-08 14:28 | -2.71730 | 15.83829 | 27121 ft | 485 kts | 21° |
| 2026-05-08 14:29 | -2.68576 | 15.85043 | 27341 ft | 487 kts | 22° |
| 2026-05-08 14:29 | -2.65405 | 15.86262 | 27549 ft | 488 kts | 21° |
| 2026-05-08 14:29 | -2.62225 | 15.87485 | 27765 ft | 490 kts | 22° |
| 2026-05-08 14:29 | -2.59081 | 15.88694 | 27969 ft | 492 kts | 21° |
| 2026-05-08 14:30 | -2.55874 | 15.89928 | 28185 ft | 493 kts | 21° |
| 2026-05-08 14:30 | -2.52663 | 15.91163 | 28404 ft | 495 kts | 21° |
| 2026-05-08 14:30 | -2.49440 | 15.92402 | 28621 ft | 496 kts | 21° |
| 2026-05-08 14:30 | -2.46208 | 15.93645 | 28798 ft | 498 kts | 21° |
| 2026-05-08 14:31 | -2.42969 | 15.94890 | 29043 ft | 498 kts | 21° |
| 2026-05-08 14:31 | -2.39736 | 15.96133 | 29361 ft | 497 kts | 21° |
| 2026-05-08 14:31 | -2.36505 | 15.97375 | 29639 ft | 497 kts | 21° |
| 2026-05-08 14:32 | -2.30090 | 15.99841 | 30142 ft | 496 kts | 21° |
| 2026-05-08 14:32 | -2.26858 | 16.01084 | 30378 ft | 495 kts | 21° |
| 2026-05-08 14:32 | -2.23643 | 16.02319 | 30610 ft | 495 kts | 21° |
| 2026-05-08 14:32 | -2.20423 | 16.03557 | 30833 ft | 494 kts | 21° |
| 2026-05-08 14:33 | -2.17219 | 16.04789 | 31110 ft | 492 kts | 21° |
| 2026-05-08 14:33 | -2.14029 | 16.06015 | 31374 ft | 490 kts | 21° |
| 2026-05-08 14:33 | -2.10885 | 16.07223 | 31570 ft | 490 kts | 21° |
| 2026-05-08 14:33 | -2.07698 | 16.08448 | 31766 ft | 490 kts | 21° |
| 2026-05-08 14:34 | -2.04517 | 16.09671 | 31966 ft | 489 kts | 21° |
| 2026-05-08 14:34 | -2.01342 | 16.10891 | 32164 ft | 489 kts | 22° |
| 2026-05-08 14:34 | -1.98166 | 16.12112 | 32359 ft | 489 kts | 22° |
| 2026-05-08 14:34 | -1.95020 | 16.13321 | 32540 ft | 488 kts | 22° |
| 2026-05-08 14:35 | -1.91849 | 16.14530 | 32732 ft | 488 kts | 21° |
| 2026-05-08 14:35 | -1.88667 | 16.15732 | 32931 ft | 487 kts | 21° |
| 2026-05-08 14:35 | -1.85495 | 16.16926 | 33110 ft | 487 kts | 21° |
| 2026-05-08 14:35 | -1.82320 | 16.18121 | 33290 ft | 486 kts | 21° |
| 2026-05-08 14:36 | -1.79154 | 16.19313 | 33522 ft | 484 kts | 21° |
| 2026-05-08 14:36 | -1.76000 | 16.20503 | 33724 ft | 484 kts | 21° |
| 2026-05-08 14:36 | -1.72851 | 16.21693 | 33859 ft | 483 kts | 21° |
| 2026-05-08 14:36 | -1.69700 | 16.22883 | 33990 ft | 483 kts | 21° |
| 2026-05-08 14:37 | -1.66552 | 16.24073 | 34118 ft | 483 kts | 21° |
| 2026-05-08 14:37 | -1.63414 | 16.25260 | 34243 ft | 483 kts | 21° |
| 2026-05-08 14:37 | -1.60304 | 16.26436 | 34369 ft | 483 kts | 21° |
| 2026-05-08 14:37 | -1.57159 | 16.27624 | 34488 ft | 482 kts | 21° |
| 2026-05-08 14:38 | -1.54025 | 16.28809 | 34611 ft | 482 kts | 21° |
| 2026-05-08 14:38 | -1.50874 | 16.30000 | 34732 ft | 482 kts | 21° |
| 2026-05-08 14:38 | -1.44621 | 16.32364 | 34852 ft | 484 kts | 21° |
| 2026-05-08 14:39 | -1.38288 | 16.34757 | 34850 ft | 486 kts | 21° |
| 2026-05-08 14:39 | -1.31961 | 16.37147 | 34851 ft | 485 kts | 21° |
| 2026-05-08 14:40 | -1.26711 | 16.39131 | 34848 ft | 485 kts | 21° |
| 2026-05-08 14:40 | -1.19370 | 16.41905 | 34848 ft | 485 kts | 21° |
| 2026-05-08 14:41 | -1.14114 | 16.43891 | 34848 ft | 485 kts | 21° |
| 2026-05-08 14:41 | -1.07792 | 16.46280 | 34849 ft | 485 kts | 21° |
| 2026-05-08 14:42 | -1.01460 | 16.48671 | 34848 ft | 485 kts | 21° |
| 2026-05-08 14:42 | -0.95144 | 16.51058 | 34848 ft | 485 kts | 21° |
| 2026-05-08 14:43 | -0.88851 | 16.53435 | 34848 ft | 485 kts | 21° |
| 2026-05-08 14:43 | -0.82521 | 16.55826 | 34848 ft | 485 kts | 21° |
| 2026-05-08 14:44 | -0.76201 | 16.58213 | 34848 ft | 485 kts | 21° |
| 2026-05-08 14:44 | -0.69913 | 16.60588 | 34848 ft | 485 kts | 21° |
| 2026-05-08 14:45 | -0.63594 | 16.62975 | 34848 ft | 485 kts | 21° |
| 2026-05-08 14:45 | -0.57274 | 16.65362 | 34848 ft | 485 kts | 21° |
| 2026-05-08 14:46 | -0.50985 | 16.67742 | 34845 ft | 485 kts | 21° |
| 2026-05-08 14:46 | -0.44681 | 16.70120 | 34846 ft | 485 kts | 21° |
| 2026-05-08 14:47 | -0.38353 | 16.72506 | 34844 ft | 483 kts | 21° |
| 2026-05-08 14:47 | -0.32095 | 16.74868 | 34845 ft | 483 kts | 21° |
| 2026-05-08 14:48 | -0.25799 | 16.77244 | 34845 ft | 483 kts | 21° |
| 2026-05-08 14:48 | -0.19507 | 16.79620 | 34845 ft | 483 kts | 21° |
| 2026-05-08 14:49 | -0.13254 | 16.81980 | 34845 ft | 483 kts | 21° |
| 2026-05-08 14:49 | -0.06960 | 16.84356 | 34845 ft | 483 kts | 21° |
| 2026-05-08 14:50 | -0.00665 | 16.86732 | 34850 ft | 483 kts | 21° |
| 2026-05-08 14:50 | 0.05638 | 16.89111 | 34846 ft | 483 kts | 21° |
| 2026-05-08 14:51 | 0.11899 | 16.91475 | 34845 ft | 483 kts | 21° |
| 2026-05-08 14:51 | 0.18204 | 16.93854 | 34845 ft | 483 kts | 21° |
| 2026-05-08 14:52 | 0.27646 | 16.97419 | 34846 ft | 483 kts | 21° |
| 2026-05-08 14:53 | 0.33900 | 16.99780 | 34845 ft | 483 kts | 21° |
| 2026-05-08 14:53 | 0.40192 | 17.02155 | 34845 ft | 482 kts | 21° |
| 2026-05-08 14:54 | 0.46457 | 17.04520 | 34845 ft | 480 kts | 21° |
| 2026-05-08 14:54 | 0.52680 | 17.06869 | 34845 ft | 480 kts | 21° |
| 2026-05-08 14:55 | 0.59057 | 17.08811 | 34846 ft | 480 kts | 9° |
| 2026-05-08 14:55 | 0.65709 | 17.09531 | 34845 ft | 481 kts | 5° |
| 2026-05-08 14:56 | 0.72380 | 17.10014 | 34846 ft | 482 kts | 5° |
| 2026-05-08 14:56 | 0.79044 | 17.10464 | 34845 ft | 480 kts | 5° |
| 2026-05-08 14:57 | 0.85714 | 17.10934 | 34845 ft | 480 kts | 5° |
| 2026-05-08 14:57 | 0.92395 | 17.11418 | 34845 ft | 480 kts | 5° |
| 2026-05-08 14:58 | 0.99061 | 17.11905 | 34846 ft | 480 kts | 5° |
| 2026-05-08 14:58 | 1.05691 | 17.12389 | 34846 ft | 480 kts | 5° |
| 2026-05-08 14:59 | 1.12349 | 17.12874 | 34845 ft | 479 kts | 5° |
| 2026-05-08 14:59 | 1.22298 | 17.13599 | 34840 ft | 476 kts | 5° |
| 2026-05-08 15:00 | 1.28860 | 17.14077 | 34843 ft | 476 kts | 5° |
| 2026-05-08 15:00 | 1.35480 | 17.14559 | 34834 ft | 476 kts | 5° |
| 2026-05-08 15:01 | 1.42063 | 17.15039 | 34831 ft | 476 kts | 5° |
| 2026-05-08 15:01 | 1.48676 | 17.15521 | 34823 ft | 476 kts | 5° |
| 2026-05-08 15:02 | 1.55308 | 17.16004 | 34826 ft | 478 kts | 5° |
| 2026-05-08 15:02 | 1.61918 | 17.16486 | 34823 ft | 478 kts | 5° |
| 2026-05-08 15:03 | 1.68556 | 17.16969 | 34823 ft | 478 kts | 5° |
| 2026-05-08 15:03 | 1.75190 | 17.17453 | 34821 ft | 478 kts | 5° |
| 2026-05-08 15:04 | 1.81836 | 17.17937 | 34820 ft | 478 kts | 5° |
| 2026-05-08 15:04 | 1.88463 | 17.18420 | 34820 ft | 477 kts | 5° |
| 2026-05-08 15:05 | 1.95092 | 17.18903 | 34823 ft | 477 kts | 5° |
| 2026-05-08 15:05 | 2.01707 | 17.19385 | 34824 ft | 477 kts | 5° |
| 2026-05-08 15:06 | 2.08339 | 17.19869 | 34829 ft | 477 kts | 5° |
| 2026-05-08 15:06 | 2.14920 | 17.20349 | 34829 ft | 477 kts | 5° |
| 2026-05-08 15:07 | 2.21533 | 17.20831 | 34831 ft | 477 kts | 5° |
| 2026-05-08 15:07 | 2.28163 | 17.21315 | 34831 ft | 477 kts | 5° |
| 2026-05-08 15:08 | 2.33667 | 17.21716 | 34832 ft | 477 kts | 5° |
| 2026-05-08 15:08 | 2.41362 | 17.22277 | 34833 ft | 477 kts | 5° |
| 2026-05-08 15:09 | 2.47988 | 17.22761 | 34833 ft | 477 kts | 5° |
| 2026-05-08 15:09 | 2.54574 | 17.23241 | 34833 ft | 477 kts | 5° |
| 2026-05-08 15:10 | 2.61202 | 17.23725 | 34832 ft | 477 kts | 5° |
| 2026-05-08 15:10 | 2.67821 | 17.24208 | 34831 ft | 477 kts | 5° |
| 2026-05-08 15:11 | 2.74450 | 17.24691 | 34828 ft | 477 kts | 5° |
| 2026-05-08 15:11 | 2.81022 | 17.25171 | 34835 ft | 477 kts | 5° |
| 2026-05-08 15:12 | 2.87642 | 17.25654 | 34835 ft | 477 kts | 5° |
| 2026-05-08 15:12 | 2.94260 | 17.26137 | 34835 ft | 476 kts | 5° |
| 2026-05-08 15:13 | 3.00868 | 17.26620 | 34832 ft | 475 kts | 5° |
| 2026-05-08 15:13 | 3.07473 | 17.27102 | 34834 ft | 475 kts | 5° |
| 2026-05-08 15:14 | 3.14038 | 17.27582 | 34835 ft | 475 kts | 5° |
| 2026-05-08 15:14 | 3.20652 | 17.28065 | 34843 ft | 475 kts | 5° |
| 2026-05-08 15:15 | 3.27257 | 17.28547 | 34844 ft | 475 kts | 5° |
| 2026-05-08 15:15 | 3.33860 | 17.29029 | 34842 ft | 475 kts | 5° |
| 2026-05-08 15:16 | 3.40464 | 17.29512 | 34843 ft | 475 kts | 5° |
| 2026-05-08 15:16 | 3.47030 | 17.29992 | 34842 ft | 475 kts | 5° |
| 2026-05-08 15:17 | 3.53633 | 17.30475 | 34842 ft | 475 kts | 5° |
| 2026-05-08 15:17 | 3.60242 | 17.30958 | 34843 ft | 475 kts | 5° |
| 2026-05-08 15:18 | 3.66811 | 17.31427 | 34840 ft | 476 kts | 4° |
| 2026-05-08 15:18 | 3.73399 | 17.30816 | 34846 ft | 478 kts | 349° |
| 2026-05-08 15:19 | 3.79874 | 17.29234 | 34843 ft | 479 kts | 347° |
| 2026-05-08 15:19 | 3.86321 | 17.27491 | 34843 ft | 479 kts | 346° |
| 2026-05-08 15:20 | 3.92762 | 17.25744 | 34843 ft | 479 kts | 346° |
| 2026-05-08 15:20 | 3.99213 | 17.24018 | 34843 ft | 479 kts | 347° |
| 2026-05-08 15:21 | 4.05625 | 17.22313 | 34842 ft | 480 kts | 347° |
| 2026-05-08 15:21 | 4.12093 | 17.20596 | 34843 ft | 480 kts | 347° |
| 2026-05-08 15:22 | 4.18559 | 17.18878 | 34843 ft | 480 kts | 347° |
| 2026-05-08 15:22 | 4.24985 | 17.17170 | 34840 ft | 480 kts | 347° |
| 2026-05-08 15:23 | 4.31450 | 17.15452 | 34840 ft | 480 kts | 347° |
| 2026-05-08 15:23 | 4.37911 | 17.13739 | 34839 ft | 480 kts | 347° |
| 2026-05-08 15:24 | 4.44375 | 17.12020 | 34840 ft | 480 kts | 347° |
| 2026-05-08 15:24 | 4.50809 | 17.10310 | 34935 ft | 479 kts | 347° |
| 2026-05-08 15:25 | 4.54038 | 17.09452 | 35078 ft | 478 kts | 347° |
| 2026-05-08 15:25 | 4.57255 | 17.08597 | 35195 ft | 478 kts | 347° |
| 2026-05-08 15:25 | 4.60469 | 17.07743 | 35310 ft | 478 kts | 347° |
| 2026-05-08 15:25 | 4.63696 | 17.06885 | 35431 ft | 478 kts | 346° |
| 2026-05-08 15:26 | 4.66906 | 17.06029 | 35536 ft | 478 kts | 346° |
| 2026-05-08 15:26 | 4.69029 | 17.05464 | 35609 ft | 478 kts | 346° |
| 2026-05-08 15:26 | 4.75477 | 17.03749 | 35807 ft | 478 kts | 347° |
| 2026-05-08 15:27 | 4.81921 | 17.02034 | 35836 ft | 478 kts | 347° |
| 2026-05-08 15:27 | 4.88347 | 17.00323 | 35837 ft | 477 kts | 347° |
| 2026-05-08 15:28 | 4.94724 | 16.98624 | 35837 ft | 476 kts | 347° |
| 2026-05-08 15:28 | 5.01141 | 16.96915 | 35842 ft | 476 kts | 347° |
| 2026-05-08 15:29 | 5.07554 | 16.95211 | 35844 ft | 477 kts | 347° |
| 2026-05-08 15:29 | 5.13924 | 16.93513 | 35843 ft | 475 kts | 347° |
| 2026-05-08 15:30 | 5.20315 | 16.91807 | 35842 ft | 474 kts | 347° |
| 2026-05-08 15:30 | 5.26694 | 16.90106 | 35840 ft | 473 kts | 347° |
| 2026-05-08 15:31 | 5.33025 | 16.88419 | 35838 ft | 474 kts | 347° |
| 2026-05-08 15:31 | 5.39407 | 16.86717 | 35837 ft | 474 kts | 347° |
| 2026-05-08 15:32 | 5.45782 | 16.85017 | 35837 ft | 474 kts | 347° |
| 2026-05-08 15:32 | 5.52155 | 16.83317 | 35836 ft | 471 kts | 347° |
| 2026-05-08 15:33 | 5.58446 | 16.81638 | 35831 ft | 470 kts | 347° |
| 2026-05-08 15:33 | 5.64795 | 16.79944 | 35831 ft | 470 kts | 347° |
| 2026-05-08 15:34 | 5.71130 | 16.78253 | 35824 ft | 471 kts | 347° |
| 2026-05-08 15:34 | 5.77460 | 16.76563 | 35824 ft | 470 kts | 347° |
| 2026-05-08 15:35 | 5.83754 | 16.74882 | 35816 ft | 470 kts | 347° |
| 2026-05-08 15:35 | 5.90074 | 16.73194 | 35814 ft | 469 kts | 347° |
| 2026-05-08 15:36 | 5.96394 | 16.71505 | 35818 ft | 469 kts | 347° |
| 2026-05-08 15:36 | 6.02657 | 16.69832 | 35809 ft | 469 kts | 347° |
| 2026-05-08 15:37 | 6.08976 | 16.68143 | 35809 ft | 469 kts | 347° |
| 2026-05-08 15:37 | 6.15285 | 16.66456 | 35801 ft | 469 kts | 347° |
| 2026-05-08 15:38 | 6.21614 | 16.64764 | 35805 ft | 469 kts | 347° |
| 2026-05-08 15:38 | 6.27874 | 16.63090 | 35797 ft | 468 kts | 347° |
| 2026-05-08 15:39 | 6.34182 | 16.61403 | 35805 ft | 468 kts | 347° |
| 2026-05-08 15:39 | 6.40486 | 16.59717 | 35805 ft | 468 kts | 347° |
| 2026-05-08 15:40 | 6.46784 | 16.58032 | 35799 ft | 468 kts | 347° |
| 2026-05-08 15:40 | 6.53046 | 16.56356 | 35799 ft | 468 kts | 347° |
| 2026-05-08 15:41 | 6.59341 | 16.54670 | 35792 ft | 467 kts | 347° |
| 2026-05-08 15:41 | 6.65626 | 16.52987 | 35792 ft | 467 kts | 347° |
| 2026-05-08 15:42 | 6.71908 | 16.51305 | 35790 ft | 466 kts | 347° |
| 2026-05-08 15:42 | 6.78148 | 16.49633 | 35790 ft | 466 kts | 347° |
| 2026-05-08 15:43 | 6.84424 | 16.47951 | 35795 ft | 466 kts | 347° |
| 2026-05-08 15:43 | 6.90696 | 16.46270 | 35791 ft | 466 kts | 347° |
| 2026-05-08 15:44 | 6.96973 | 16.44587 | 35787 ft | 466 kts | 347° |
| 2026-05-08 15:44 | 7.03247 | 16.42904 | 35781 ft | 466 kts | 347° |
| 2026-05-08 15:45 | 7.09486 | 16.41231 | 35786 ft | 466 kts | 347° |
| 2026-05-08 15:45 | 7.15762 | 16.39546 | 35784 ft | 466 kts | 347° |
| 2026-05-08 15:46 | 7.22037 | 16.37862 | 35784 ft | 466 kts | 347° |
| 2026-05-08 15:46 | 7.28308 | 16.36178 | 35787 ft | 466 kts | 346° |
| 2026-05-08 15:47 | 7.34588 | 16.34488 | 35779 ft | 466 kts | 347° |
| 2026-05-08 15:47 | 7.40811 | 16.32817 | 35779 ft | 465 kts | 347° |
| 2026-05-08 15:48 | 7.50197 | 16.30296 | 35775 ft | 465 kts | 347° |
| 2026-05-08 15:49 | 7.56469 | 16.28611 | 35772 ft | 465 kts | 347° |
| 2026-05-08 15:49 | 7.62722 | 16.26929 | 35765 ft | 465 kts | 347° |
| 2026-05-08 15:50 | 7.68982 | 16.25245 | 35768 ft | 464 kts | 347° |
| 2026-05-08 15:50 | 7.75180 | 16.23577 | 35760 ft | 464 kts | 347° |
| 2026-05-08 15:51 | 7.81426 | 16.21895 | 35764 ft | 464 kts | 347° |
| 2026-05-08 15:51 | 7.87679 | 16.20212 | 35760 ft | 464 kts | 347° |
| 2026-05-08 15:52 | 7.93912 | 16.18533 | 35756 ft | 464 kts | 347° |
| 2026-05-08 15:52 | 8.00124 | 16.16859 | 35759 ft | 464 kts | 347° |
| 2026-05-08 15:53 | 8.06378 | 16.15177 | 35757 ft | 463 kts | 346° |
| 2026-05-08 15:53 | 8.12607 | 16.13494 | 35756 ft | 463 kts | 346° |
| 2026-05-08 15:54 | 8.18795 | 16.11821 | 35752 ft | 462 kts | 346° |
| 2026-05-08 15:54 | 8.25022 | 16.10139 | 35752 ft | 463 kts | 346° |
| 2026-05-08 15:55 | 8.31246 | 16.08458 | 35750 ft | 463 kts | 346° |
| 2026-05-08 15:55 | 8.40552 | 16.05944 | 35749 ft | 462 kts | 346° |
| 2026-05-08 15:56 | 8.46769 | 16.04263 | 35872 ft | 462 kts | 346° |
| 2026-05-08 15:56 | 8.52989 | 16.02581 | 35905 ft | 462 kts | 346° |
| 2026-05-08 15:57 | 8.59161 | 16.00912 | 35911 ft | 462 kts | 346° |
| 2026-05-08 15:57 | 8.65377 | 15.99230 | 35914 ft | 462 kts | 346° |
| 2026-05-08 15:58 | 8.71586 | 15.97549 | 35884 ft | 461 kts | 346° |
| 2026-05-08 15:58 | 8.77788 | 15.95870 | 35849 ft | 460 kts | 346° |
| 2026-05-08 15:59 | 8.83971 | 15.94195 | 35812 ft | 459 kts | 346° |
| 2026-05-08 15:59 | 8.90096 | 15.92536 | 35743 ft | 458 kts | 346° |
| 2026-05-08 16:00 | 8.96266 | 15.90863 | 35760 ft | 458 kts | 346° |
| 2026-05-08 16:00 | 9.02440 | 15.89189 | 35760 ft | 458 kts | 346° |
| 2026-05-08 16:01 | 9.08604 | 15.87517 | 35752 ft | 458 kts | 346° |
| 2026-05-08 16:01 | 9.14736 | 15.85854 | 35751 ft | 458 kts | 346° |
| 2026-05-08 16:02 | 9.20905 | 15.84179 | 35741 ft | 458 kts | 346° |
| 2026-05-08 16:02 | 9.27071 | 15.82505 | 35740 ft | 458 kts | 346° |
| 2026-05-08 16:03 | 9.33234 | 15.80831 | 35732 ft | 458 kts | 346° |
| 2026-05-08 16:03 | 9.39354 | 15.79168 | 35731 ft | 458 kts | 346° |
| 2026-05-08 16:04 | 9.45521 | 15.77492 | 35738 ft | 458 kts | 346° |
| 2026-05-08 16:04 | 9.51644 | 15.75830 | 35727 ft | 458 kts | 346° |
| 2026-05-08 16:05 | 9.57818 | 15.74154 | 35724 ft | 458 kts | 346° |
| 2026-05-08 16:05 | 9.63987 | 15.72478 | 35716 ft | 458 kts | 346° |
| 2026-05-08 16:06 | 9.70144 | 15.70804 | 35716 ft | 458 kts | 346° |
| 2026-05-08 16:06 | 9.76275 | 15.69137 | 35710 ft | 458 kts | 346° |
| 2026-05-08 16:07 | 9.82431 | 15.67462 | 35710 ft | 458 kts | 346° |
| 2026-05-08 16:07 | 9.88584 | 15.65788 | 35710 ft | 456 kts | 346° |
| 2026-05-08 16:08 | 9.94722 | 15.64116 | 35710 ft | 456 kts | 346° |
| 2026-05-08 16:08 | 10.00836 | 15.62451 | 35705 ft | 454 kts | 346° |
| 2026-05-08 16:09 | 10.05916 | 15.61067 | 35705 ft | 454 kts | 346° |
| 2026-05-08 16:09 | 10.13047 | 15.59124 | 35705 ft | 454 kts | 346° |
| 2026-05-08 16:10 | 10.19132 | 15.57468 | 35705 ft | 454 kts | 346° |
| 2026-05-08 16:10 | 10.25239 | 15.55799 | 35708 ft | 453 kts | 346° |
| 2026-05-08 16:11 | 10.31281 | 15.54145 | 35705 ft | 452 kts | 346° |
| 2026-05-08 16:11 | 10.37369 | 15.52480 | 35708 ft | 452 kts | 346° |
| 2026-05-08 16:12 | 10.43447 | 15.50817 | 35710 ft | 452 kts | 346° |
| 2026-05-08 16:12 | 10.48515 | 15.49431 | 35716 ft | 452 kts | 346° |
| 2026-05-08 16:13 | 10.55589 | 15.47494 | 35719 ft | 452 kts | 346° |
| 2026-05-08 16:13 | 10.61664 | 15.45831 | 35719 ft | 452 kts | 346° |
| 2026-05-08 16:14 | 10.66727 | 15.44444 | 35724 ft | 452 kts | 346° |
| 2026-05-08 16:14 | 10.72820 | 15.42774 | 35724 ft | 452 kts | 346° |
| 2026-05-08 16:15 | 10.78905 | 15.41106 | 35727 ft | 452 kts | 346° |
| 2026-05-08 16:15 | 10.84984 | 15.39439 | 35727 ft | 452 kts | 346° |
| 2026-05-08 16:16 | 10.91067 | 15.37770 | 35731 ft | 452 kts | 346° |
| 2026-05-08 16:16 | 10.97086 | 15.36118 | 35727 ft | 450 kts | 346° |
| 2026-05-08 16:17 | 11.03139 | 15.34455 | 35733 ft | 450 kts | 346° |
| 2026-05-08 16:17 | 11.09193 | 15.32792 | 35732 ft | 450 kts | 346° |
| 2026-05-08 16:18 | 11.15241 | 15.31130 | 35735 ft | 450 kts | 346° |
| 2026-05-08 16:18 | 11.21272 | 15.29471 | 35738 ft | 450 kts | 346° |
| 2026-05-08 16:19 | 11.27319 | 15.27808 | 35735 ft | 450 kts | 346° |
| 2026-05-08 16:19 | 11.33327 | 15.26154 | 35735 ft | 449 kts | 346° |
| 2026-05-08 16:20 | 11.39365 | 15.24492 | 35741 ft | 449 kts | 346° |
| 2026-05-08 16:20 | 11.45403 | 15.22829 | 35741 ft | 449 kts | 346° |
| 2026-05-08 16:21 | 11.51393 | 15.21178 | 35752 ft | 449 kts | 346° |
| 2026-05-08 16:21 | 11.57427 | 15.19515 | 35752 ft | 449 kts | 346° |
| 2026-05-08 16:22 | 11.63463 | 15.17850 | 35760 ft | 449 kts | 346° |
| 2026-05-08 16:22 | 11.69461 | 15.16195 | 35755 ft | 448 kts | 345° |
| 2026-05-08 16:23 | 11.75478 | 15.14534 | 35751 ft | 447 kts | 345° |
| 2026-05-08 16:23 | 11.81486 | 15.12874 | 35759 ft | 447 kts | 345° |
| 2026-05-08 16:24 | 11.87498 | 15.11213 | 35757 ft | 447 kts | 345° |
| 2026-05-08 16:24 | 11.93475 | 15.09561 | 35763 ft | 447 kts | 345° |
| 2026-05-08 16:25 | 11.99492 | 15.07897 | 35773 ft | 447 kts | 345° |
| 2026-05-08 16:25 | 12.05498 | 15.06235 | 35774 ft | 446 kts | 345° |
| 2026-05-08 16:26 | 12.11503 | 15.04572 | 35774 ft | 446 kts | 345° |
| 2026-05-08 16:26 | 12.17489 | 15.02886 | 35774 ft | 446 kts | 344° |
| 2026-05-08 16:27 | 12.23401 | 15.01068 | 35775 ft | 446 kts | 343° |
| 2026-05-08 16:27 | 12.29332 | 14.99216 | 35771 ft | 446 kts | 344° |
| 2026-05-08 16:28 | 12.35287 | 14.97378 | 35780 ft | 446 kts | 344° |
| 2026-05-08 16:28 | 12.41236 | 14.95556 | 35773 ft | 444 kts | 344° |
| 2026-05-08 16:29 | 12.47131 | 14.93752 | 35772 ft | 444 kts | 344° |
| 2026-05-08 16:29 | 12.53064 | 14.91936 | 35771 ft | 444 kts | 344° |
| 2026-05-08 16:30 | 12.58997 | 14.90118 | 35775 ft | 445 kts | 344° |
| 2026-05-08 16:30 | 12.64889 | 14.88311 | 35778 ft | 445 kts | 344° |
| 2026-05-08 16:31 | 12.70817 | 14.86493 | 35778 ft | 445 kts | 344° |
| 2026-05-08 16:31 | 12.76747 | 14.84673 | 35777 ft | 444 kts | 343° |
| 2026-05-08 16:32 | 12.82663 | 14.82856 | 35781 ft | 443 kts | 343° |
| 2026-05-08 16:32 | 12.88580 | 14.81039 | 35780 ft | 443 kts | 343° |
| 2026-05-08 16:33 | 12.94498 | 14.79220 | 35781 ft | 443 kts | 343° |
| 2026-05-08 16:33 | 13.00407 | 14.77402 | 35781 ft | 443 kts | 343° |
| 2026-05-08 16:34 | 13.06281 | 14.75595 | 35777 ft | 443 kts | 343° |
| 2026-05-08 16:34 | 13.12191 | 14.73776 | 35779 ft | 443 kts | 343° |
| 2026-05-08 16:35 | 13.18112 | 14.71953 | 35783 ft | 443 kts | 343° |
| 2026-05-08 16:35 | 13.24014 | 14.70134 | 35782 ft | 443 kts | 343° |
| 2026-05-08 16:36 | 13.29895 | 14.68321 | 35787 ft | 443 kts | 343° |
| 2026-05-08 16:36 | 13.35808 | 14.66497 | 35786 ft | 443 kts | 343° |
| 2026-05-08 16:37 | 13.41731 | 14.64669 | 35791 ft | 443 kts | 343° |
| 2026-05-08 16:37 | 13.47636 | 14.62846 | 35789 ft | 444 kts | 343° |
| 2026-05-08 16:38 | 13.53557 | 14.61017 | 35792 ft | 444 kts | 343° |
| 2026-05-08 16:38 | 13.59449 | 14.59196 | 35792 ft | 444 kts | 343° |
| 2026-05-08 16:39 | 13.65368 | 14.57365 | 35789 ft | 444 kts | 343° |
| 2026-05-08 16:39 | 13.71287 | 14.55534 | 35792 ft | 444 kts | 343° |
| 2026-05-08 16:40 | 13.77193 | 14.53706 | 35794 ft | 444 kts | 343° |
| 2026-05-08 16:40 | 13.83119 | 14.51871 | 35793 ft | 443 kts | 343° |
| 2026-05-08 16:41 | 13.88987 | 14.50052 | 35794 ft | 443 kts | 343° |
| 2026-05-08 16:42 | 13.97870 | 14.47297 | 35795 ft | 443 kts | 343° |
| 2026-05-08 16:42 | 14.03779 | 14.45464 | 35796 ft | 443 kts | 343° |
| 2026-05-08 16:43 | 14.09651 | 14.43640 | 35797 ft | 443 kts | 343° |
| 2026-05-08 16:43 | 14.15565 | 14.41803 | 35798 ft | 443 kts | 343° |
| 2026-05-08 16:44 | 14.21484 | 14.39964 | 35801 ft | 443 kts | 343° |
| 2026-05-08 16:44 | 14.27400 | 14.38124 | 35798 ft | 443 kts | 343° |
| 2026-05-08 16:45 | 14.33269 | 14.36298 | 35803 ft | 443 kts | 343° |
| 2026-05-08 16:45 | 14.39181 | 14.34457 | 35799 ft | 443 kts | 343° |
| 2026-05-08 16:46 | 14.45085 | 14.32623 | 35799 ft | 443 kts | 343° |
| 2026-05-08 16:46 | 14.50998 | 14.30778 | 35799 ft | 443 kts | 342° |
| 2026-05-08 16:47 | 14.56848 | 14.28952 | 35801 ft | 441 kts | 342° |
| 2026-05-08 16:47 | 14.62741 | 14.27112 | 35802 ft | 441 kts | 342° |
| 2026-05-08 16:48 | 14.68567 | 14.25294 | 35801 ft | 441 kts | 342° |
| 2026-05-08 16:48 | 14.74445 | 14.23458 | 35801 ft | 441 kts | 342° |
| 2026-05-08 16:49 | 14.80317 | 14.21623 | 35807 ft | 440 kts | 342° |
| 2026-05-08 16:49 | 14.86199 | 14.19783 | 35803 ft | 442 kts | 342° |
| 2026-05-08 16:50 | 14.92090 | 14.17940 | 35804 ft | 442 kts | 342° |
| 2026-05-08 16:50 | 14.97956 | 14.16104 | 35804 ft | 442 kts | 342° |
| 2026-05-08 16:51 | 15.03892 | 14.14244 | 35805 ft | 442 kts | 342° |
| 2026-05-08 16:51 | 15.09749 | 14.12408 | 35807 ft | 442 kts | 342° |
| 2026-05-08 16:52 | 15.15641 | 14.10561 | 35809 ft | 442 kts | 342° |
| 2026-05-08 16:52 | 15.21540 | 14.08710 | 35810 ft | 442 kts | 342° |
| 2026-05-08 16:53 | 15.30356 | 14.05942 | 35807 ft | 442 kts | 342° |
| 2026-05-08 16:53 | 15.36252 | 14.04089 | 35807 ft | 442 kts | 342° |
| 2026-05-08 16:54 | 15.42122 | 14.02243 | 35810 ft | 442 kts | 342° |
| 2026-05-08 16:54 | 15.48010 | 14.00390 | 35813 ft | 442 kts | 342° |
| 2026-05-08 16:55 | 15.53918 | 13.98530 | 35813 ft | 442 kts | 342° |
| 2026-05-08 16:55 | 15.59776 | 13.96686 | 35813 ft | 441 kts | 341° |
| 2026-05-08 16:56 | 15.65647 | 13.94835 | 35812 ft | 441 kts | 341° |
| 2026-05-08 16:56 | 15.71520 | 13.92982 | 35812 ft | 441 kts | 341° |
| 2026-05-08 16:57 | 15.77401 | 13.91127 | 35815 ft | 441 kts | 341° |
| 2026-05-08 16:57 | 15.83269 | 13.89274 | 35815 ft | 441 kts | 341° |
| 2026-05-08 16:58 | 15.89102 | 13.87431 | 35815 ft | 441 kts | 341° |
| 2026-05-08 16:58 | 15.94981 | 13.85573 | 35812 ft | 440 kts | 341° |
| 2026-05-08 16:59 | 16.00839 | 13.83720 | 35815 ft | 440 kts | 341° |
| 2026-05-08 16:59 | 16.06714 | 13.81860 | 35816 ft | 441 kts | 341° |
| 2026-05-08 17:00 | 16.12553 | 13.80010 | 35818 ft | 440 kts | 341° |
| 2026-05-08 17:00 | 16.17437 | 13.78463 | 35818 ft | 440 kts | 341° |
| 2026-05-08 17:01 | 16.23305 | 13.76602 | 35818 ft | 440 kts | 341° |
| 2026-05-08 17:01 | 16.30119 | 13.74440 | 35817 ft | 440 kts | 341° |
| 2026-05-08 17:02 | 16.35028 | 13.72882 | 35821 ft | 440 kts | 341° |
| 2026-05-08 17:02 | 16.40850 | 13.71032 | 35821 ft | 440 kts | 341° |
| 2026-05-08 17:03 | 16.46710 | 13.69169 | 35824 ft | 440 kts | 340° |
| 2026-05-08 17:03 | 16.52580 | 13.67302 | 35823 ft | 439 kts | 340° |
| 2026-05-08 17:04 | 16.58398 | 13.65451 | 35823 ft | 439 kts | 341° |
| 2026-05-08 17:04 | 16.64246 | 13.63589 | 35826 ft | 439 kts | 340° |
| 2026-05-08 17:05 | 16.70087 | 13.61727 | 35826 ft | 437 kts | 340° |
| 2026-05-08 17:05 | 16.75912 | 13.59869 | 35826 ft | 437 kts | 340° |
| 2026-05-08 17:06 | 16.81688 | 13.58025 | 35829 ft | 437 kts | 340° |
| 2026-05-08 17:06 | 16.87502 | 13.56169 | 35832 ft | 437 kts | 340° |
| 2026-05-08 17:07 | 16.93323 | 13.54309 | 35832 ft | 437 kts | 340° |
| 2026-05-08 17:07 | 16.99145 | 13.52448 | 35833 ft | 436 kts | 340° |
| 2026-05-08 17:08 | 17.04918 | 13.50601 | 35835 ft | 436 kts | 340° |
| 2026-05-08 17:08 | 17.10724 | 13.48742 | 35835 ft | 436 kts | 340° |
| 2026-05-08 17:09 | 17.16544 | 13.46877 | 35837 ft | 437 kts | 340° |
| 2026-05-08 17:09 | 17.22353 | 13.45015 | 35837 ft | 437 kts | 340° |
| 2026-05-08 17:10 | 17.28165 | 13.43150 | 35837 ft | 437 kts | 340° |
| 2026-05-08 17:10 | 17.33938 | 13.41298 | 35840 ft | 435 kts | 340° |
| 2026-05-08 17:11 | 17.39738 | 13.39435 | 35838 ft | 435 kts | 340° |
| 2026-05-08 17:11 | 17.45534 | 13.37571 | 35842 ft | 435 kts | 340° |
| 2026-05-08 17:12 | 17.51323 | 13.35710 | 35843 ft | 435 kts | 340° |
| 2026-05-08 17:12 | 17.57084 | 13.33859 | 35837 ft | 435 kts | 340° |
| 2026-05-08 17:13 | 17.62874 | 13.31993 | 35840 ft | 435 kts | 340° |
| 2026-05-08 17:13 | 17.68664 | 13.30125 | 35841 ft | 435 kts | 340° |
| 2026-05-08 17:14 | 17.74452 | 13.28258 | 35848 ft | 435 kts | 340° |
| 2026-05-08 17:14 | 17.80218 | 13.26397 | 35846 ft | 435 kts | 340° |
| 2026-05-08 17:15 | 17.86015 | 13.24525 | 35846 ft | 435 kts | 340° |
| 2026-05-08 17:15 | 17.91810 | 13.22652 | 35847 ft | 435 kts | 340° |
| 2026-05-08 17:16 | 17.97570 | 13.20789 | 35851 ft | 435 kts | 339° |
| 2026-05-08 17:16 | 18.03346 | 13.18921 | 35842 ft | 434 kts | 339° |
| 2026-05-08 17:17 | 18.09128 | 13.17048 | 35842 ft | 434 kts | 339° |
| 2026-05-08 17:17 | 18.14904 | 13.15176 | 35843 ft | 434 kts | 339° |
| 2026-05-08 17:18 | 18.20642 | 13.13315 | 35844 ft | 434 kts | 339° |
| 2026-05-08 17:18 | 18.26425 | 13.11440 | 35843 ft | 434 kts | 339° |
| 2026-05-08 17:19 | 18.32207 | 13.09561 | 35841 ft | 434 kts | 339° |
| 2026-05-08 17:19 | 18.37944 | 13.07697 | 35842 ft | 433 kts | 339° |
| 2026-05-08 17:20 | 18.43720 | 13.05819 | 35839 ft | 433 kts | 339° |
| 2026-05-08 17:20 | 18.49444 | 13.03956 | 35840 ft | 433 kts | 339° |
| 2026-05-08 17:21 | 18.55208 | 13.02079 | 35840 ft | 433 kts | 339° |
| 2026-05-08 17:21 | 18.60971 | 13.00201 | 35840 ft | 433 kts | 339° |
| 2026-05-08 17:22 | 18.66737 | 12.98321 | 35854 ft | 433 kts | 339° |
| 2026-05-08 17:22 | 18.72456 | 12.96455 | 35842 ft | 432 kts | 339° |
| 2026-05-08 17:23 | 18.78206 | 12.94577 | 35837 ft | 432 kts | 339° |
| 2026-05-08 17:23 | 18.83948 | 12.92700 | 35840 ft | 432 kts | 339° |
| 2026-05-08 17:24 | 18.89663 | 12.90831 | 35841 ft | 432 kts | 339° |
| 2026-05-08 17:24 | 18.95420 | 12.88942 | 35840 ft | 431 kts | 338° |
| 2026-05-08 17:25 | 19.00826 | 12.86318 | 35852 ft | 426 kts | 327° |
| 2026-05-08 17:25 | 19.05914 | 12.83185 | 35840 ft | 426 kts | 326° |
| 2026-05-08 17:26 | 19.10986 | 12.79945 | 35838 ft | 426 kts | 326° |
| 2026-05-08 17:26 | 19.16057 | 12.76699 | 35832 ft | 426 kts | 326° |
| 2026-05-08 17:27 | 19.21144 | 12.73457 | 35838 ft | 426 kts | 326° |
| 2026-05-08 17:27 | 19.26234 | 12.70219 | 35837 ft | 427 kts | 326° |
| 2026-05-08 17:28 | 19.31290 | 12.67001 | 35838 ft | 427 kts | 326° |
| 2026-05-08 17:28 | 19.36381 | 12.63759 | 35846 ft | 427 kts | 326° |
| 2026-05-08 17:29 | 19.41467 | 12.60517 | 35828 ft | 426 kts | 326° |
| 2026-05-08 17:29 | 19.46547 | 12.57275 | 35829 ft | 426 kts | 326° |
| 2026-05-08 17:30 | 19.51629 | 12.54031 | 35845 ft | 426 kts | 326° |
| 2026-05-08 17:30 | 19.56680 | 12.50804 | 35831 ft | 426 kts | 325° |
| 2026-05-08 17:31 | 19.61761 | 12.47555 | 35826 ft | 426 kts | 326° |
| 2026-05-08 17:31 | 19.66855 | 12.44295 | 35841 ft | 426 kts | 326° |
| 2026-05-08 17:32 | 19.71933 | 12.41044 | 35834 ft | 426 kts | 325° |
| 2026-05-08 17:32 | 19.76977 | 12.37811 | 35830 ft | 426 kts | 325° |
| 2026-05-08 17:33 | 19.82047 | 12.34560 | 35833 ft | 426 kts | 325° |
| 2026-05-08 17:33 | 19.87122 | 12.31303 | 35831 ft | 426 kts | 325° |
| 2026-05-08 17:34 | 19.92195 | 12.28044 | 35831 ft | 426 kts | 325° |
| 2026-05-08 17:34 | 19.97272 | 12.24781 | 35834 ft | 426 kts | 325° |
| 2026-05-08 17:35 | 20.02304 | 12.21544 | 35830 ft | 426 kts | 325° |
| 2026-05-08 17:35 | 20.07377 | 12.18278 | 35835 ft | 425 kts | 325° |
| 2026-05-08 17:36 | 20.12442 | 12.15015 | 35831 ft | 424 kts | 325° |
| 2026-05-08 17:36 | 20.17467 | 12.11776 | 35831 ft | 424 kts | 325° |
| 2026-05-08 17:37 | 20.22522 | 12.08514 | 35831 ft | 424 kts | 325° |
| 2026-05-08 17:37 | 20.27574 | 12.05251 | 35831 ft | 424 kts | 325° |
| 2026-05-08 17:38 | 20.32633 | 12.01982 | 35830 ft | 425 kts | 324° |
| 2026-05-08 17:38 | 20.37705 | 11.98701 | 35829 ft | 426 kts | 324° |
| 2026-05-08 17:39 | 20.42735 | 11.95446 | 35833 ft | 425 kts | 324° |
| 2026-05-08 17:39 | 20.47787 | 11.92175 | 35832 ft | 424 kts | 324° |
| 2026-05-08 17:40 | 20.52839 | 11.88900 | 35829 ft | 424 kts | 324° |
| 2026-05-08 17:40 | 20.57884 | 11.85629 | 35829 ft | 424 kts | 324° |
| 2026-05-08 17:41 | 20.62939 | 11.82347 | 35828 ft | 424 kts | 324° |
| 2026-05-08 17:41 | 20.67982 | 11.79066 | 35829 ft | 424 kts | 324° |
| 2026-05-08 17:42 | 20.72996 | 11.75801 | 35829 ft | 424 kts | 324° |
| 2026-05-08 17:42 | 20.78034 | 11.72521 | 35837 ft | 424 kts | 324° |
| 2026-05-08 17:43 | 20.83081 | 11.69232 | 35833 ft | 424 kts | 324° |
| 2026-05-08 17:43 | 20.88133 | 11.65937 | 35833 ft | 425 kts | 324° |
| 2026-05-08 17:44 | 20.93178 | 11.62644 | 35834 ft | 425 kts | 324° |
| 2026-05-08 17:44 | 20.98199 | 11.59364 | 35834 ft | 425 kts | 324° |
| 2026-05-08 17:45 | 21.03252 | 11.56061 | 35835 ft | 425 kts | 324° |
| 2026-05-08 17:45 | 21.08304 | 11.52755 | 35836 ft | 425 kts | 324° |
| 2026-05-08 17:46 | 21.13316 | 11.49475 | 35834 ft | 425 kts | 324° |
| 2026-05-08 17:46 | 21.18381 | 11.46160 | 35839 ft | 425 kts | 324° |
| 2026-05-08 17:47 | 21.23391 | 11.42872 | 35839 ft | 425 kts | 324° |
| 2026-05-08 17:47 | 21.27585 | 11.40119 | 35837 ft | 425 kts | 324° |
| 2026-05-08 17:48 | 21.33485 | 11.36244 | 35839 ft | 425 kts | 324° |
| 2026-05-08 17:48 | 21.38502 | 11.32946 | 35838 ft | 425 kts | 324° |
| 2026-05-08 17:49 | 21.43545 | 11.29629 | 35837 ft | 426 kts | 324° |
| 2026-05-08 17:49 | 21.48613 | 11.26292 | 35833 ft | 427 kts | 324° |
| 2026-05-08 17:50 | 21.52823 | 11.23518 | 35836 ft | 427 kts | 324° |
| 2026-05-08 17:50 | 21.57888 | 11.20179 | 35839 ft | 427 kts | 324° |
| 2026-05-08 17:51 | 21.62962 | 11.16831 | 35836 ft | 427 kts | 324° |
| 2026-05-08 17:51 | 21.68007 | 11.13499 | 35839 ft | 427 kts | 324° |
| 2026-05-08 17:52 | 21.73075 | 11.10149 | 35841 ft | 427 kts | 323° |
| 2026-05-08 17:53 | 21.80692 | 11.05108 | 35843 ft | 430 kts | 323° |
| 2026-05-08 17:53 | 21.85804 | 11.01721 | 35842 ft | 431 kts | 323° |
| 2026-05-08 17:54 | 21.90888 | 10.98352 | 35844 ft | 431 kts | 323° |
| 2026-05-08 17:54 | 21.95993 | 10.94965 | 35842 ft | 431 kts | 323° |
| 2026-05-08 17:55 | 22.01110 | 10.91567 | 35844 ft | 431 kts | 323° |
| 2026-05-08 17:55 | 22.06225 | 10.88167 | 35835 ft | 431 kts | 323° |
| 2026-05-08 17:56 | 22.11308 | 10.84787 | 35849 ft | 431 kts | 323° |
| 2026-05-08 17:56 | 22.16416 | 10.81385 | 35847 ft | 431 kts | 323° |
| 2026-05-08 17:57 | 22.21535 | 10.77974 | 35849 ft | 432 kts | 323° |
| 2026-05-08 17:57 | 22.26614 | 10.74586 | 35853 ft | 432 kts | 323° |
| 2026-05-08 17:58 | 22.31730 | 10.71172 | 35857 ft | 432 kts | 323° |
| 2026-05-08 17:58 | 22.36844 | 10.67754 | 35854 ft | 432 kts | 323° |
| 2026-05-08 17:59 | 22.41952 | 10.64339 | 35847 ft | 432 kts | 323° |
| 2026-05-08 17:59 | 22.47034 | 10.60938 | 35853 ft | 432 kts | 322° |
| 2026-05-08 18:00 | 22.52141 | 10.57517 | 35867 ft | 432 kts | 322° |
| 2026-05-08 18:00 | 22.59794 | 10.52385 | 35883 ft | 430 kts | 322° |
| 2026-05-08 18:01 | 22.64891 | 10.48973 | 35877 ft | 431 kts | 323° |
| 2026-05-08 18:01 | 22.70100 | 10.45698 | 35877 ft | 432 kts | 324° |
| 2026-05-08 18:02 | 22.74450 | 10.43029 | 35877 ft | 432 kts | 324° |
| 2026-05-08 18:02 | 22.80557 | 10.39251 | 35888 ft | 432 kts | 324° |
| 2026-05-08 18:03 | 22.85732 | 10.36019 | 35890 ft | 432 kts | 324° |
| 2026-05-08 18:03 | 22.90942 | 10.32754 | 35898 ft | 431 kts | 324° |
| 2026-05-08 18:04 | 22.96143 | 10.29492 | 35899 ft | 432 kts | 324° |
| 2026-05-08 18:04 | 23.01342 | 10.26230 | 35898 ft | 432 kts | 324° |
| 2026-05-08 18:05 | 23.06518 | 10.22980 | 35909 ft | 431 kts | 324° |
| 2026-05-08 18:05 | 23.11716 | 10.19713 | 35915 ft | 432 kts | 323° |
| 2026-05-08 18:06 | 23.16917 | 10.16442 | 35911 ft | 431 kts | 323° |
| 2026-05-08 18:06 | 23.22081 | 10.13190 | 35911 ft | 431 kts | 323° |
| 2026-05-08 18:07 | 23.27271 | 10.09920 | 35917 ft | 431 kts | 323° |
| 2026-05-08 18:07 | 23.32473 | 10.06638 | 35922 ft | 431 kts | 323° |
| 2026-05-08 18:08 | 23.37663 | 10.03361 | 35922 ft | 431 kts | 323° |
| 2026-05-08 18:08 | 23.42813 | 10.00107 | 35945 ft | 431 kts | 323° |
| 2026-05-08 18:09 | 23.48002 | 9.96825 | 35926 ft | 429 kts | 323° |
| 2026-05-08 18:09 | 23.53134 | 9.93576 | 35929 ft | 429 kts | 323° |
| 2026-05-08 18:10 | 23.58298 | 9.90303 | 35934 ft | 429 kts | 323° |
| 2026-05-08 18:10 | 23.63459 | 9.87030 | 35934 ft | 429 kts | 323° |
| 2026-05-08 18:11 | 23.68623 | 9.83752 | 35938 ft | 429 kts | 323° |
| 2026-05-08 18:11 | 23.73752 | 9.80493 | 35941 ft | 429 kts | 323° |
| 2026-05-08 18:12 | 23.78920 | 9.77206 | 35940 ft | 429 kts | 323° |
| 2026-05-08 18:12 | 23.84089 | 9.73916 | 35953 ft | 429 kts | 323° |
| 2026-05-08 18:13 | 23.89213 | 9.70651 | 35952 ft | 429 kts | 323° |
| 2026-05-08 18:13 | 23.94364 | 9.67365 | 35947 ft | 429 kts | 323° |
| 2026-05-08 18:14 | 23.99523 | 9.64072 | 35960 ft | 429 kts | 323° |
| 2026-05-08 18:14 | 24.04678 | 9.60778 | 35981 ft | 429 kts | 323° |
| 2026-05-08 18:15 | 24.09828 | 9.57484 | 36006 ft | 429 kts | 323° |
| 2026-05-08 18:15 | 24.15016 | 9.54160 | 36027 ft | 433 kts | 323° |
| 2026-05-08 18:16 | 24.20194 | 9.50842 | 36044 ft | 434 kts | 323° |
| 2026-05-08 18:16 | 24.25413 | 9.47500 | 36047 ft | 434 kts | 323° |
| 2026-05-08 18:17 | 24.31075 | 9.44927 | 36048 ft | 450 kts | 338° |
| 2026-05-08 18:17 | 24.37230 | 9.43385 | 36048 ft | 455 kts | 340° |
| 2026-05-08 18:18 | 24.43411 | 9.42042 | 36035 ft | 456 kts | 341° |
| 2026-05-08 18:18 | 24.49641 | 9.40701 | 36028 ft | 456 kts | 340° |
| 2026-05-08 18:19 | 24.55863 | 9.39337 | 36013 ft | 456 kts | 340° |
| 2026-05-08 18:19 | 24.62085 | 9.37956 | 35982 ft | 456 kts | 340° |
| 2026-05-08 18:20 | 24.68305 | 9.36571 | 35982 ft | 455 kts | 340° |
| 2026-05-08 18:20 | 24.74520 | 9.35187 | 35998 ft | 456 kts | 340° |
| 2026-05-08 18:21 | 24.80704 | 9.33808 | 35994 ft | 456 kts | 340° |
| 2026-05-08 18:21 | 24.86935 | 9.32418 | 36009 ft | 456 kts | 340° |
| 2026-05-08 18:22 | 24.93166 | 9.31026 | 36002 ft | 456 kts | 340° |
| 2026-05-08 18:22 | 24.99394 | 9.29636 | 36011 ft | 456 kts | 340° |
| 2026-05-08 18:23 | 25.05618 | 9.28244 | 36021 ft | 456 kts | 340° |
| 2026-05-08 18:23 | 25.11860 | 9.26845 | 36002 ft | 458 kts | 340° |
| 2026-05-08 18:24 | 25.18070 | 9.25452 | 36001 ft | 458 kts | 340° |
| 2026-05-08 18:24 | 25.24321 | 9.24050 | 35990 ft | 458 kts | 340° |
| 2026-05-08 18:25 | 25.30572 | 9.22646 | 35993 ft | 458 kts | 340° |
| 2026-05-08 18:25 | 25.36832 | 9.21238 | 35978 ft | 458 kts | 340° |
| 2026-05-08 18:26 | 25.43047 | 9.19837 | 35972 ft | 459 kts | 340° |
| 2026-05-08 18:26 | 25.49322 | 9.18424 | 35959 ft | 460 kts | 340° |
| 2026-05-08 18:27 | 25.54535 | 9.17248 | 35958 ft | 460 kts | 340° |
| 2026-05-08 18:27 | 25.61874 | 9.15591 | 35947 ft | 459 kts | 340° |
| 2026-05-08 18:28 | 25.68146 | 9.14173 | 35953 ft | 459 kts | 340° |
| 2026-05-08 18:28 | 25.74370 | 9.12764 | 35936 ft | 459 kts | 340° |
| 2026-05-08 18:29 | 25.80634 | 9.11343 | 35935 ft | 459 kts | 340° |
| 2026-05-08 18:29 | 25.86899 | 9.09924 | 35927 ft | 459 kts | 340° |
| 2026-05-08 18:30 | 25.93136 | 9.08508 | 35939 ft | 459 kts | 340° |
| 2026-05-08 18:30 | 25.99391 | 9.07086 | 35928 ft | 459 kts | 341° |
| 2026-05-08 18:31 | 26.05668 | 9.05663 | 35945 ft | 459 kts | 341° |
| 2026-05-08 18:31 | 26.11924 | 9.04255 | 35920 ft | 458 kts | 341° |
| 2026-05-08 18:32 | 26.18191 | 9.02840 | 35927 ft | 459 kts | 341° |
| 2026-05-08 18:32 | 26.24408 | 9.01433 | 35911 ft | 459 kts | 341° |
| 2026-05-08 18:33 | 26.30672 | 9.00011 | 35922 ft | 459 kts | 341° |
| 2026-05-08 18:33 | 26.36947 | 8.98588 | 35904 ft | 460 kts | 341° |
| 2026-05-08 18:34 | 26.42169 | 8.97403 | 35906 ft | 460 kts | 342° |
| 2026-05-08 18:34 | 26.49464 | 8.95747 | 35898 ft | 460 kts | 341° |
| 2026-05-08 18:35 | 26.54686 | 8.94559 | 35893 ft | 460 kts | 341° |
| 2026-05-08 18:35 | 26.60968 | 8.93128 | 35892 ft | 460 kts | 342° |
| 2026-05-08 18:36 | 26.67258 | 8.91692 | 35889 ft | 461 kts | 342° |
| 2026-05-08 18:36 | 26.73510 | 8.90266 | 35918 ft | 461 kts | 342° |
| 2026-05-08 18:37 | 26.79799 | 8.88829 | 35918 ft | 461 kts | 342° |
| 2026-05-08 18:37 | 26.86085 | 8.87391 | 35915 ft | 461 kts | 342° |
| 2026-05-08 18:38 | 26.92376 | 8.85950 | 35913 ft | 461 kts | 342° |
| 2026-05-08 18:38 | 26.98662 | 8.84509 | 35896 ft | 461 kts | 342° |
| 2026-05-08 18:39 | 27.04955 | 8.83072 | 35888 ft | 461 kts | 342° |
| 2026-05-08 18:39 | 27.11215 | 8.81649 | 35894 ft | 461 kts | 342° |
| 2026-05-08 18:40 | 27.17508 | 8.80217 | 35892 ft | 461 kts | 342° |
| 2026-05-08 18:40 | 27.23811 | 8.78779 | 35891 ft | 461 kts | 342° |
| 2026-05-08 18:41 | 27.30079 | 8.77348 | 35888 ft | 461 kts | 342° |
| 2026-05-08 18:41 | 27.36372 | 8.75908 | 35893 ft | 461 kts | 342° |
| 2026-05-08 18:42 | 27.42680 | 8.74464 | 35896 ft | 461 kts | 342° |
| 2026-05-08 18:42 | 27.48978 | 8.73020 | 35894 ft | 461 kts | 342° |
| 2026-05-08 18:43 | 27.55236 | 8.71584 | 35896 ft | 461 kts | 342° |
| 2026-05-08 18:43 | 27.61543 | 8.70135 | 35897 ft | 462 kts | 342° |
| 2026-05-08 18:44 | 27.67810 | 8.68694 | 35900 ft | 462 kts | 342° |
| 2026-05-08 18:44 | 27.74122 | 8.67240 | 35897 ft | 462 kts | 342° |
| 2026-05-08 18:45 | 27.80434 | 8.65785 | 35909 ft | 462 kts | 342° |
| 2026-05-08 18:45 | 27.86746 | 8.64328 | 35910 ft | 462 kts | 342° |
| 2026-05-08 18:46 | 27.93051 | 8.62870 | 35906 ft | 462 kts | 342° |
| 2026-05-08 18:46 | 27.99312 | 8.61422 | 35911 ft | 462 kts | 342° |
| 2026-05-08 18:47 | 28.05626 | 8.59959 | 35905 ft | 462 kts | 342° |
| 2026-05-08 18:47 | 28.11941 | 8.58499 | 35907 ft | 462 kts | 343° |
| 2026-05-08 18:48 | 28.18204 | 8.57064 | 35908 ft | 462 kts | 343° |
| 2026-05-08 18:48 | 28.24514 | 8.55618 | 35908 ft | 462 kts | 343° |
| 2026-05-08 18:49 | 28.30824 | 8.54169 | 35909 ft | 462 kts | 343° |
| 2026-05-08 18:49 | 28.37133 | 8.52717 | 35909 ft | 462 kts | 343° |
| 2026-05-08 18:50 | 28.43397 | 8.51275 | 35919 ft | 462 kts | 343° |
| 2026-05-08 18:50 | 28.49718 | 8.49817 | 35915 ft | 463 kts | 342° |
| 2026-05-08 18:51 | 28.56044 | 8.48357 | 35914 ft | 463 kts | 343° |
| 2026-05-08 18:51 | 28.62323 | 8.46906 | 35914 ft | 463 kts | 343° |
| 2026-05-08 18:52 | 28.68641 | 8.45444 | 35917 ft | 463 kts | 342° |
| 2026-05-08 18:52 | 28.74964 | 8.43978 | 35918 ft | 463 kts | 342° |
| 2026-05-08 18:53 | 28.81245 | 8.42521 | 35920 ft | 463 kts | 342° |
| 2026-05-08 18:53 | 28.87577 | 8.41050 | 35916 ft | 464 kts | 342° |
| 2026-05-08 18:54 | 28.93912 | 8.39577 | 35914 ft | 464 kts | 342° |
| 2026-05-08 18:54 | 29.00231 | 8.38106 | 35920 ft | 463 kts | 342° |
| 2026-05-08 18:55 | 29.09688 | 8.35900 | 35914 ft | 464 kts | 342° |
| 2026-05-08 18:56 | 29.16024 | 8.34420 | 35908 ft | 464 kts | 342° |
| 2026-05-08 18:56 | 29.22366 | 8.32936 | 35906 ft | 466 kts | 342° |
| 2026-05-08 18:57 | 29.28722 | 8.31447 | 35924 ft | 466 kts | 342° |
| 2026-05-08 18:57 | 29.35054 | 8.29962 | 35906 ft | 467 kts | 342° |
| 2026-05-08 18:58 | 29.41423 | 8.28468 | 35905 ft | 467 kts | 342° |
| 2026-05-08 18:58 | 29.47793 | 8.26970 | 35903 ft | 467 kts | 342° |
| 2026-05-08 18:59 | 29.54122 | 8.25481 | 35903 ft | 467 kts | 342° |
| 2026-05-08 18:59 | 29.60496 | 8.23978 | 35905 ft | 467 kts | 342° |
| 2026-05-08 19:00 | 29.66873 | 8.22473 | 35904 ft | 467 kts | 342° |
| 2026-05-08 19:00 | 29.73252 | 8.20966 | 35905 ft | 467 kts | 342° |
| 2026-05-08 19:01 | 29.79623 | 8.19459 | 35905 ft | 467 kts | 342° |
| 2026-05-08 19:01 | 29.85961 | 8.17958 | 35901 ft | 467 kts | 342° |
| 2026-05-08 19:02 | 29.92328 | 8.16447 | 35907 ft | 467 kts | 342° |
| 2026-05-08 19:02 | 29.98698 | 8.14934 | 35903 ft | 467 kts | 342° |
| 2026-05-08 19:03 | 30.05071 | 8.13418 | 35905 ft | 467 kts | 342° |
| 2026-05-08 19:03 | 30.11395 | 8.11925 | 35904 ft | 467 kts | 342° |
| 2026-05-08 19:04 | 30.17777 | 8.10436 | 35903 ft | 467 kts | 342° |
| 2026-05-08 19:04 | 30.24148 | 8.08949 | 35903 ft | 466 kts | 342° |
| 2026-05-08 19:05 | 30.30509 | 8.07458 | 35904 ft | 467 kts | 342° |
| 2026-05-08 19:05 | 30.36884 | 8.05959 | 35906 ft | 467 kts | 342° |
| 2026-05-08 19:06 | 30.43215 | 8.04468 | 35907 ft | 466 kts | 342° |
| 2026-05-08 19:06 | 30.49584 | 8.02968 | 35906 ft | 467 kts | 342° |
| 2026-05-08 19:07 | 30.55951 | 8.01467 | 35902 ft | 467 kts | 342° |
| 2026-05-08 19:07 | 30.62283 | 7.99971 | 35902 ft | 466 kts | 342° |
| 2026-05-08 19:08 | 30.68657 | 7.98463 | 35906 ft | 466 kts | 342° |
| 2026-05-08 19:08 | 30.75023 | 7.96955 | 35912 ft | 466 kts | 342° |
| 2026-05-08 19:09 | 30.81391 | 7.95444 | 35906 ft | 467 kts | 342° |
| 2026-05-08 19:09 | 30.87712 | 7.93943 | 35906 ft | 466 kts | 342° |
| 2026-05-08 19:10 | 30.94072 | 7.92431 | 35905 ft | 466 kts | 342° |
| 2026-05-08 19:10 | 31.00442 | 7.90914 | 35926 ft | 467 kts | 342° |
| 2026-05-08 19:11 | 31.06813 | 7.89395 | 35899 ft | 466 kts | 342° |
| 2026-05-08 19:11 | 31.13138 | 7.87885 | 35895 ft | 466 kts | 342° |
| 2026-05-08 19:12 | 31.19495 | 7.86365 | 35902 ft | 466 kts | 342° |
| 2026-05-08 19:12 | 31.25857 | 7.84841 | 35903 ft | 466 kts | 342° |
| 2026-05-08 19:13 | 31.32224 | 7.83315 | 35908 ft | 466 kts | 342° |
| 2026-05-08 19:13 | 31.38535 | 7.81800 | 35911 ft | 465 kts | 342° |
| 2026-05-08 19:14 | 31.44883 | 7.80274 | 35903 ft | 465 kts | 342° |
| 2026-05-08 19:14 | 31.51230 | 7.78745 | 35906 ft | 465 kts | 342° |
| 2026-05-08 19:15 | 31.57578 | 7.77215 | 35917 ft | 465 kts | 342° |
| 2026-05-08 19:15 | 31.63927 | 7.75681 | 35900 ft | 465 kts | 342° |
| 2026-05-08 19:16 | 31.70282 | 7.74145 | 35896 ft | 466 kts | 342° |
| 2026-05-08 19:16 | 31.76589 | 7.72619 | 35896 ft | 466 kts | 342° |
| 2026-05-08 19:17 | 31.82947 | 7.71104 | 35895 ft | 466 kts | 342° |
| 2026-05-08 19:17 | 31.89321 | 7.69603 | 35898 ft | 466 kts | 342° |
| 2026-05-08 19:18 | 31.95695 | 7.68098 | 35895 ft | 466 kts | 342° |
| 2026-05-08 19:18 | 32.02018 | 7.66599 | 35895 ft | 466 kts | 342° |
| 2026-05-08 19:19 | 32.08395 | 7.65083 | 35894 ft | 466 kts | 342° |
| 2026-05-08 19:19 | 32.14715 | 7.63578 | 35897 ft | 466 kts | 342° |
| 2026-05-08 19:20 | 32.21075 | 7.62061 | 35893 ft | 466 kts | 342° |
| 2026-05-08 19:20 | 32.27440 | 7.60542 | 35896 ft | 466 kts | 342° |
| 2026-05-08 19:21 | 32.33799 | 7.59021 | 35898 ft | 466 kts | 342° |
| 2026-05-08 19:21 | 32.40117 | 7.57508 | 35893 ft | 466 kts | 341° |
| 2026-05-08 19:22 | 32.46488 | 7.55980 | 35883 ft | 467 kts | 342° |
| 2026-05-08 19:22 | 32.51782 | 7.54709 | 35886 ft | 467 kts | 342° |
| 2026-05-08 19:23 | 32.58168 | 7.53174 | 35890 ft | 467 kts | 342° |
| 2026-05-08 19:23 | 32.64550 | 7.51638 | 35886 ft | 467 kts | 342° |
| 2026-05-08 19:24 | 32.70889 | 7.50110 | 35888 ft | 467 kts | 341° |
| 2026-05-08 19:24 | 32.77269 | 7.48569 | 35888 ft | 467 kts | 341° |
| 2026-05-08 19:25 | 32.83654 | 7.47025 | 35890 ft | 467 kts | 341° |
| 2026-05-08 19:25 | 32.89986 | 7.45492 | 35887 ft | 467 kts | 341° |
| 2026-05-08 19:26 | 32.96367 | 7.43944 | 35887 ft | 467 kts | 341° |
| 2026-05-08 19:26 | 33.02746 | 7.42394 | 35888 ft | 467 kts | 341° |
| 2026-05-08 19:27 | 33.09133 | 7.40841 | 35885 ft | 468 kts | 341° |
| 2026-05-08 19:27 | 33.15514 | 7.39286 | 35885 ft | 468 kts | 341° |
| 2026-05-08 19:28 | 33.21854 | 7.37740 | 35889 ft | 467 kts | 341° |
| 2026-05-08 19:28 | 33.28244 | 7.36179 | 35887 ft | 468 kts | 341° |
| 2026-05-08 19:29 | 33.34589 | 7.34626 | 35886 ft | 468 kts | 341° |
| 2026-05-08 19:29 | 33.40977 | 7.33061 | 35886 ft | 468 kts | 341° |
| 2026-05-08 19:30 | 33.47354 | 7.31496 | 35905 ft | 468 kts | 341° |
| 2026-05-08 19:30 | 33.53747 | 7.29923 | 35887 ft | 468 kts | 341° |
| 2026-05-08 19:31 | 33.60106 | 7.28358 | 35882 ft | 469 kts | 341° |
| 2026-05-08 19:31 | 33.66444 | 7.26796 | 35881 ft | 468 kts | 341° |
| 2026-05-08 19:32 | 33.72899 | 7.25202 | 35881 ft | 468 kts | 341° |
| 2026-05-08 19:32 | 33.79242 | 7.23634 | 35881 ft | 468 kts | 341° |
| 2026-05-08 19:33 | 33.85637 | 7.22050 | 35881 ft | 467 kts | 341° |
| 2026-05-08 19:33 | 33.92017 | 7.20468 | 35881 ft | 467 kts | 341° |
| 2026-05-08 19:34 | 33.98347 | 7.18895 | 35881 ft | 467 kts | 341° |
| 2026-05-08 19:34 | 34.04734 | 7.17306 | 35884 ft | 467 kts | 341° |
| 2026-05-08 19:35 | 34.11097 | 7.15721 | 35883 ft | 466 kts | 341° |
| 2026-05-08 19:35 | 34.17455 | 7.14134 | 35884 ft | 466 kts | 341° |
| 2026-05-08 19:36 | 34.23762 | 7.12557 | 35882 ft | 466 kts | 341° |
| 2026-05-08 19:36 | 34.30131 | 7.10963 | 35892 ft | 466 kts | 341° |
| 2026-05-08 19:37 | 34.36453 | 7.09378 | 35888 ft | 466 kts | 341° |
| 2026-05-08 19:37 | 34.42795 | 7.07785 | 35900 ft | 466 kts | 341° |
| 2026-05-08 19:38 | 34.49151 | 7.06186 | 35894 ft | 466 kts | 341° |
| 2026-05-08 19:38 | 34.55501 | 7.04587 | 35914 ft | 466 kts | 341° |
| 2026-05-08 19:39 | 34.61853 | 7.02985 | 35911 ft | 465 kts | 341° |
| 2026-05-08 19:39 | 34.68154 | 7.01393 | 35933 ft | 465 kts | 341° |
| 2026-05-08 19:40 | 34.74495 | 6.99788 | 35952 ft | 465 kts | 341° |
| 2026-05-08 19:40 | 34.80839 | 6.98180 | 35966 ft | 465 kts | 340° |
| 2026-05-08 19:41 | 34.87184 | 6.96603 | 35972 ft | 464 kts | 341° |
| 2026-05-08 19:41 | 34.93514 | 6.95041 | 35977 ft | 464 kts | 341° |
| 2026-05-08 19:42 | 34.99812 | 6.93488 | 35993 ft | 464 kts | 341° |
| 2026-05-08 19:42 | 35.06161 | 6.91917 | 36038 ft | 464 kts | 341° |
| 2026-05-08 19:43 | 35.12445 | 6.90357 | 36016 ft | 462 kts | 341° |
| 2026-05-08 19:43 | 35.18756 | 6.88785 | 36023 ft | 461 kts | 341° |
| 2026-05-08 19:44 | 35.25047 | 6.87214 | 36022 ft | 462 kts | 341° |
| 2026-05-08 19:44 | 35.31354 | 6.85636 | 36048 ft | 462 kts | 340° |
| 2026-05-08 19:45 | 35.37650 | 6.84061 | 36037 ft | 461 kts | 340° |
| 2026-05-08 19:45 | 35.43917 | 6.82489 | 36027 ft | 463 kts | 340° |
| 2026-05-08 19:46 | 35.50228 | 6.80906 | 36023 ft | 463 kts | 340° |
| 2026-05-08 19:46 | 35.59726 | 6.78519 | 36024 ft | 462 kts | 340° |
| 2026-05-08 19:47 | 35.66028 | 6.76933 | 36022 ft | 461 kts | 340° |
| 2026-05-08 19:47 | 35.72274 | 6.75357 | 36020 ft | 461 kts | 340° |
| 2026-05-08 19:48 | 35.78561 | 6.73766 | 36024 ft | 461 kts | 340° |
| 2026-05-08 19:48 | 35.84867 | 6.72168 | 36021 ft | 461 kts | 340° |
| 2026-05-08 19:49 | 35.91109 | 6.70584 | 36029 ft | 461 kts | 340° |
| 2026-05-08 19:49 | 35.97403 | 6.68986 | 36032 ft | 461 kts | 340° |
| 2026-05-08 19:50 | 36.03684 | 6.67387 | 36049 ft | 461 kts | 340° |
| 2026-05-08 19:50 | 36.09979 | 6.65785 | 36065 ft | 461 kts | 340° |
| 2026-05-08 19:51 | 36.16216 | 6.64193 | 36069 ft | 460 kts | 340° |
| 2026-05-08 19:51 | 36.22500 | 6.62586 | 36075 ft | 460 kts | 340° |
| 2026-05-08 19:52 | 36.28776 | 6.60978 | 36075 ft | 460 kts | 340° |
| 2026-05-08 19:52 | 36.35066 | 6.59584 | 36082 ft | 464 kts | 342° |
| 2026-05-08 19:53 | 36.41493 | 6.58480 | 36327 ft | 465 kts | 343° |
| 2026-05-08 19:53 | 36.44701 | 6.57932 | 36491 ft | 464 kts | 343° |
| 2026-05-08 19:53 | 36.47891 | 6.57372 | 36690 ft | 464 kts | 342° |
| 2026-05-08 19:54 | 36.51088 | 6.56794 | 36841 ft | 463 kts | 342° |
| 2026-05-08 19:54 | 36.54277 | 6.56207 | 36984 ft | 463 kts | 342° |
| 2026-05-08 19:54 | 36.57424 | 6.55620 | 37129 ft | 463 kts | 342° |
| 2026-05-08 19:54 | 36.60609 | 6.55023 | 37240 ft | 464 kts | 342° |
| 2026-05-08 19:55 | 36.63797 | 6.54424 | 37411 ft | 463 kts | 342° |
| 2026-05-08 19:55 | 36.66994 | 6.53825 | 37553 ft | 462 kts | 342° |
| 2026-05-08 19:55 | 36.70172 | 6.53231 | 37737 ft | 461 kts | 342° |
| 2026-05-08 19:55 | 36.73339 | 6.52639 | 37861 ft | 461 kts | 342° |
| 2026-05-08 19:56 | 36.79696 | 6.51443 | 38024 ft | 462 kts | 342° |
| 2026-05-08 19:56 | 36.86075 | 6.50241 | 38035 ft | 463 kts | 341° |
| 2026-05-08 19:57 | 36.92437 | 6.49049 | 38028 ft | 461 kts | 341° |
| 2026-05-08 19:57 | 36.98748 | 6.47861 | 38030 ft | 461 kts | 341° |
| 2026-05-08 19:58 | 37.05109 | 6.46661 | 38027 ft | 460 kts | 341° |
| 2026-05-08 19:58 | 37.11456 | 6.45459 | 38029 ft | 462 kts | 341° |
| 2026-05-08 19:59 | 37.17790 | 6.44256 | 38026 ft | 463 kts | 341° |
| 2026-05-08 19:59 | 37.24172 | 6.43046 | 38026 ft | 463 kts | 341° |
| 2026-05-08 20:00 | 37.30557 | 6.41833 | 38060 ft | 463 kts | 341° |
| 2026-05-08 20:00 | 37.36941 | 6.40617 | 38026 ft | 465 kts | 341° |
| 2026-05-08 20:01 | 37.43302 | 6.39403 | 38035 ft | 465 kts | 341° |
| 2026-05-08 20:01 | 37.49705 | 6.38181 | 38023 ft | 465 kts | 341° |
| 2026-05-08 20:02 | 37.56113 | 6.36955 | 38043 ft | 465 kts | 341° |
| 2026-05-08 20:02 | 37.62515 | 6.35727 | 38030 ft | 466 kts | 341° |
| 2026-05-08 20:03 | 37.68890 | 6.34502 | 38028 ft | 466 kts | 341° |
| 2026-05-08 20:03 | 37.75303 | 6.33269 | 38029 ft | 466 kts | 341° |
| 2026-05-08 20:04 | 37.81723 | 6.32032 | 38032 ft | 466 kts | 341° |
| 2026-05-08 20:04 | 37.88139 | 6.30794 | 38040 ft | 466 kts | 341° |
| 2026-05-08 20:05 | 37.94550 | 6.29554 | 38030 ft | 466 kts | 341° |
| 2026-05-08 20:05 | 38.00921 | 6.28319 | 38027 ft | 466 kts | 341° |
| 2026-05-08 20:06 | 38.07342 | 6.27073 | 38032 ft | 465 kts | 340° |
| 2026-05-08 20:06 | 38.13735 | 6.25831 | 38031 ft | 465 kts | 340° |
| 2026-05-08 20:07 | 38.20132 | 6.24584 | 38031 ft | 465 kts | 340° |
| 2026-05-08 20:07 | 38.26493 | 6.23342 | 38029 ft | 465 kts | 340° |
| 2026-05-08 20:08 | 38.32886 | 6.22093 | 38031 ft | 465 kts | 340° |
| 2026-05-08 20:08 | 38.39284 | 6.20840 | 38032 ft | 464 kts | 340° |
| 2026-05-08 20:09 | 38.45673 | 6.19586 | 38031 ft | 464 kts | 340° |
| 2026-05-08 20:09 | 38.52068 | 6.18330 | 38039 ft | 464 kts | 340° |
| 2026-05-08 20:10 | 38.57367 | 6.17289 | 38029 ft | 463 kts | 340° |
| 2026-05-08 20:10 | 38.64769 | 6.15829 | 38033 ft | 462 kts | 340° |
| 2026-05-08 20:11 | 38.70065 | 6.14781 | 38038 ft | 462 kts | 340° |
| 2026-05-08 20:11 | 38.76431 | 6.13521 | 38034 ft | 462 kts | 340° |
| 2026-05-08 20:12 | 38.82769 | 6.12268 | 38034 ft | 460 kts | 340° |
| 2026-05-08 20:12 | 38.89057 | 6.11018 | 38034 ft | 459 kts | 340° |
| 2026-05-08 20:13 | 38.95386 | 6.09757 | 38034 ft | 460 kts | 340° |
| 2026-05-08 20:13 | 39.01712 | 6.08500 | 38037 ft | 459 kts | 340° |
| 2026-05-08 20:14 | 39.08072 | 6.07363 | 38042 ft | 462 kts | 341° |
| 2026-05-08 20:14 | 39.14453 | 6.06280 | 38031 ft | 462 kts | 341° |
| 2026-05-08 20:15 | 39.20799 | 6.05187 | 38058 ft | 462 kts | 341° |
| 2026-05-08 20:15 | 39.27172 | 6.04072 | 38036 ft | 460 kts | 340° |
| 2026-05-08 20:16 | 39.33522 | 6.02951 | 38040 ft | 460 kts | 340° |
| 2026-05-08 20:16 | 39.39871 | 6.01826 | 38040 ft | 460 kts | 340° |
| 2026-05-08 20:17 | 39.46217 | 6.00702 | 38042 ft | 459 kts | 340° |
| 2026-05-08 20:17 | 39.52510 | 5.99588 | 38042 ft | 458 kts | 340° |
| 2026-05-08 20:18 | 39.58835 | 5.98464 | 38042 ft | 458 kts | 340° |
| 2026-05-08 20:18 | 39.65158 | 5.97337 | 38048 ft | 458 kts | 340° |
| 2026-05-08 20:19 | 39.71472 | 5.96213 | 38046 ft | 456 kts | 340° |
| 2026-05-08 20:19 | 39.77767 | 5.95090 | 38049 ft | 456 kts | 340° |
| 2026-05-08 20:20 | 39.84017 | 5.93969 | 38048 ft | 456 kts | 340° |
| 2026-05-08 20:20 | 39.90303 | 5.92840 | 38049 ft | 456 kts | 340° |
| 2026-05-08 20:21 | 39.96599 | 5.91709 | 38048 ft | 456 kts | 340° |
| 2026-05-08 20:21 | 40.02891 | 5.90577 | 38062 ft | 456 kts | 340° |
| 2026-05-08 20:22 | 40.09147 | 5.89449 | 38049 ft | 456 kts | 340° |
| 2026-05-08 20:22 | 40.15456 | 5.88308 | 38054 ft | 457 kts | 340° |
| 2026-05-08 20:23 | 40.21760 | 5.87167 | 38053 ft | 457 kts | 340° |
| 2026-05-08 20:23 | 40.28067 | 5.86024 | 38056 ft | 457 kts | 340° |
| 2026-05-08 20:24 | 40.34368 | 5.84880 | 38070 ft | 457 kts | 341° |
| 2026-05-08 20:24 | 40.40635 | 5.83739 | 38057 ft | 458 kts | 341° |
| 2026-05-08 20:25 | 40.46959 | 5.82600 | 38059 ft | 459 kts | 341° |
| 2026-05-08 20:25 | 40.53311 | 5.81595 | 38060 ft | 460 kts | 342° |
| 2026-05-08 20:26 | 40.59673 | 5.80628 | 38062 ft | 460 kts | 342° |
| 2026-05-08 20:26 | 40.65993 | 5.79646 | 38061 ft | 460 kts | 342° |
| 2026-05-08 20:27 | 40.72360 | 5.78640 | 38061 ft | 459 kts | 342° |
| 2026-05-08 20:27 | 40.78713 | 5.77629 | 38062 ft | 460 kts | 342° |
| 2026-05-08 20:28 | 40.85049 | 5.76617 | 38064 ft | 462 kts | 343° |
| 2026-05-08 20:28 | 40.91454 | 5.75596 | 38065 ft | 462 kts | 343° |
| 2026-05-08 20:29 | 40.97846 | 5.74577 | 38066 ft | 462 kts | 343° |
| 2026-05-08 20:29 | 41.04234 | 5.73555 | 38065 ft | 464 kts | 343° |
| 2026-05-08 20:30 | 41.10651 | 5.72525 | 38069 ft | 464 kts | 343° |
| 2026-05-08 20:30 | 41.17071 | 5.71494 | 38065 ft | 464 kts | 343° |
| 2026-05-08 20:31 | 41.23498 | 5.70460 | 38068 ft | 465 kts | 344° |
| 2026-05-08 20:31 | 41.29912 | 5.69422 | 38064 ft | 468 kts | 344° |
| 2026-05-08 20:32 | 41.36390 | 5.68376 | 38067 ft | 468 kts | 344° |
| 2026-05-08 20:32 | 41.42871 | 5.67329 | 38081 ft | 468 kts | 344° |
| 2026-05-08 20:33 | 41.49356 | 5.66276 | 38067 ft | 469 kts | 344° |
| 2026-05-08 20:33 | 41.55846 | 5.65221 | 38067 ft | 470 kts | 344° |
| 2026-05-08 20:34 | 41.62305 | 5.64169 | 38067 ft | 470 kts | 344° |
| 2026-05-08 20:35 | 41.72061 | 5.62574 | 38068 ft | 471 kts | 345° |
| 2026-05-08 20:35 | 41.78582 | 5.61507 | 38068 ft | 472 kts | 345° |
| 2026-05-08 20:36 | 41.85089 | 5.60328 | 38075 ft | 470 kts | 344° |
| 2026-05-08 20:36 | 41.91570 | 5.59048 | 38069 ft | 471 kts | 344° |
| 2026-05-08 20:37 | 41.98026 | 5.57782 | 38065 ft | 472 kts | 345° |
| 2026-05-08 20:37 | 42.04529 | 5.56528 | 38069 ft | 472 kts | 345° |
| 2026-05-08 20:38 | 42.11042 | 5.55276 | 38065 ft | 473 kts | 345° |
| 2026-05-08 20:38 | 42.17571 | 5.54019 | 38067 ft | 474 kts | 345° |
| 2026-05-08 20:39 | 42.24066 | 5.52766 | 38071 ft | 474 kts | 345° |
| 2026-05-08 20:39 | 42.30587 | 5.51505 | 38070 ft | 474 kts | 345° |
| 2026-05-08 20:40 | 42.37148 | 5.50233 | 38069 ft | 475 kts | 346° |
| 2026-05-08 20:40 | 42.43703 | 5.48960 | 38070 ft | 475 kts | 346° |
| 2026-05-08 20:41 | 42.50214 | 5.47692 | 38076 ft | 476 kts | 346° |
| 2026-05-08 20:41 | 42.56784 | 5.46410 | 38070 ft | 477 kts | 346° |
| 2026-05-08 20:42 | 42.63366 | 5.45123 | 38068 ft | 477 kts | 346° |
| 2026-05-08 20:42 | 42.69946 | 5.43835 | 38070 ft | 477 kts | 346° |
| 2026-05-08 20:43 | 42.76472 | 5.42554 | 38070 ft | 477 kts | 346° |
| 2026-05-08 20:43 | 42.83047 | 5.41260 | 38070 ft | 477 kts | 346° |
| 2026-05-08 20:44 | 42.89615 | 5.39965 | 38086 ft | 477 kts | 346° |
| 2026-05-08 20:44 | 42.96207 | 5.38661 | 38067 ft | 479 kts | 346° |
| 2026-05-08 20:45 | 43.02773 | 5.37359 | 38071 ft | 479 kts | 346° |
| 2026-05-08 20:45 | 43.09375 | 5.36050 | 38067 ft | 479 kts | 346° |
| 2026-05-08 20:46 | 43.15986 | 5.34736 | 38070 ft | 480 kts | 346° |
| 2026-05-08 20:46 | 43.22619 | 5.33479 | 38068 ft | 483 kts | 350° |
| 2026-05-08 20:47 | 43.29359 | 5.32999 | 38072 ft | 484 kts | 353° |
| 2026-05-08 20:47 | 43.36057 | 5.32573 | 38074 ft | 482 kts | 348° |
| 2026-05-08 20:48 | 43.42518 | 5.30467 | 38075 ft | 475 kts | 338° |
| 2026-05-08 20:48 | 43.48812 | 5.27684 | 38076 ft | 474 kts | 336° |
| 2026-05-08 20:49 | 43.55075 | 5.24782 | 38073 ft | 475 kts | 336° |
| 2026-05-08 20:49 | 43.61402 | 5.22249 | 38075 ft | 482 kts | 346° |
| 2026-05-08 20:50 | 43.68133 | 5.21419 | 38074 ft | 487 kts | 352° |
| 2026-05-08 20:50 | 43.74916 | 5.21061 | 38077 ft | 488 kts | 354° |
| 2026-05-08 20:51 | 43.81712 | 5.20779 | 38061 ft | 488 kts | 354° |
| 2026-05-08 20:51 | 43.88512 | 5.20467 | 38062 ft | 488 kts | 353° |
| 2026-05-08 20:52 | 43.95270 | 5.20132 | 38069 ft | 488 kts | 353° |
| 2026-05-08 20:52 | 44.02061 | 5.19788 | 38078 ft | 488 kts | 353° |
| 2026-05-08 20:53 | 44.08861 | 5.19443 | 38070 ft | 488 kts | 353° |
| 2026-05-08 20:53 | 44.15601 | 5.19100 | 38068 ft | 488 kts | 354° |
| 2026-05-08 20:54 | 44.21296 | 5.18810 | 38067 ft | 488 kts | 353° |
| 2026-05-08 20:54 | 44.29187 | 5.18409 | 38065 ft | 487 kts | 354° |
| 2026-05-08 20:55 | 44.35965 | 5.18063 | 38073 ft | 487 kts | 354° |
| 2026-05-08 20:55 | 44.41604 | 5.17776 | 38058 ft | 487 kts | 354° |
| 2026-05-08 20:56 | 44.49488 | 5.17371 | 38058 ft | 487 kts | 354° |
| 2026-05-08 20:56 | 44.55132 | 5.17081 | 38064 ft | 486 kts | 354° |
| 2026-05-08 20:57 | 44.61890 | 5.16734 | 38061 ft | 485 kts | 354° |
| 2026-05-08 20:57 | 44.68626 | 5.16388 | 38058 ft | 484 kts | 354° |
| 2026-05-08 20:58 | 44.75364 | 5.16040 | 38056 ft | 485 kts | 354° |
| 2026-05-08 20:58 | 44.82072 | 5.15690 | 38058 ft | 485 kts | 354° |
| 2026-05-08 20:59 | 44.88819 | 5.15337 | 38063 ft | 485 kts | 354° |
| 2026-05-08 20:59 | 44.95563 | 5.14987 | 38058 ft | 483 kts | 354° |
| 2026-05-08 21:00 | 45.02271 | 5.14637 | 38054 ft | 482 kts | 354° |
| 2026-05-08 21:00 | 45.08987 | 5.14287 | 38065 ft | 482 kts | 354° |
| 2026-05-08 21:01 | 45.15686 | 5.13936 | 38061 ft | 481 kts | 354° |
| 2026-05-08 21:01 | 45.22331 | 5.13587 | 38064 ft | 481 kts | 354° |
| 2026-05-08 21:02 | 45.29036 | 5.13232 | 38072 ft | 480 kts | 354° |
| 2026-05-08 21:02 | 45.35673 | 5.12882 | 38069 ft | 479 kts | 354° |
| 2026-05-08 21:03 | 45.42336 | 5.12529 | 38067 ft | 479 kts | 354° |
| 2026-05-08 21:03 | 45.49005 | 5.12174 | 38060 ft | 478 kts | 354° |
| 2026-05-08 21:04 | 45.55646 | 5.11822 | 38052 ft | 476 kts | 354° |
| 2026-05-08 21:04 | 45.62282 | 5.11469 | 38040 ft | 476 kts | 354° |
| 2026-05-08 21:05 | 45.68870 | 5.11115 | 38032 ft | 476 kts | 354° |
| 2026-05-08 21:05 | 45.75483 | 5.10762 | 38048 ft | 475 kts | 354° |
| 2026-05-08 21:06 | 45.82101 | 5.10405 | 38050 ft | 476 kts | 355° |
| 2026-05-08 21:06 | 45.88689 | 5.10050 | 38042 ft | 476 kts | 355° |
| 2026-05-08 21:07 | 45.95290 | 5.09695 | 38041 ft | 474 kts | 355° |
| 2026-05-08 21:07 | 46.01900 | 5.09338 | 38036 ft | 474 kts | 355° |
| 2026-05-08 21:08 | 46.08492 | 5.09057 | 38034 ft | 474 kts | 356° |
| 2026-05-08 21:08 | 46.15056 | 5.09124 | 38029 ft | 474 kts | 358° |
| 2026-05-08 21:09 | 46.21649 | 5.09240 | 38025 ft | 473 kts | 357° |
| 2026-05-08 21:09 | 46.28242 | 5.09309 | 38032 ft | 473 kts | 357° |
| 2026-05-08 21:10 | 46.34812 | 5.09336 | 38032 ft | 471 kts | 357° |
| 2026-05-08 21:10 | 46.41332 | 5.09352 | 38032 ft | 471 kts | 357° |
| 2026-05-08 21:11 | 46.47890 | 5.09374 | 38036 ft | 471 kts | 356° |
| 2026-05-08 21:11 | 46.54403 | 5.09400 | 38033 ft | 469 kts | 356° |
| 2026-05-08 21:12 | 46.60941 | 5.09427 | 38031 ft | 468 kts | 356° |
| 2026-05-08 21:12 | 46.67474 | 5.09454 | 38031 ft | 468 kts | 356° |
| 2026-05-08 21:13 | 46.73953 | 5.09481 | 38032 ft | 468 kts | 356° |
| 2026-05-08 21:13 | 46.80478 | 5.09512 | 38036 ft | 468 kts | 356° |
| 2026-05-08 21:14 | 46.87006 | 5.09541 | 38041 ft | 468 kts | 356° |
| 2026-05-08 21:14 | 46.93514 | 5.09569 | 38036 ft | 466 kts | 356° |
| 2026-05-08 21:15 | 47.00000 | 5.09597 | 38042 ft | 466 kts | 356° |
| 2026-05-08 21:15 | 47.06449 | 5.09625 | 38045 ft | 466 kts | 356° |
| 2026-05-08 21:16 | 47.12927 | 5.09655 | 38049 ft | 463 kts | 356° |
| 2026-05-08 21:16 | 47.19369 | 5.09684 | 38049 ft | 462 kts | 356° |
| 2026-05-08 21:17 | 47.25802 | 5.09712 | 38045 ft | 462 kts | 356° |
| 2026-05-08 21:17 | 47.29023 | 5.09726 | 37834 ft | 462 kts | 356° |
| 2026-05-08 21:17 | 47.32193 | 5.09741 | 37291 ft | 461 kts | 356° |
| 2026-05-08 21:17 | 47.35414 | 5.09755 | 36645 ft | 463 kts | 356° |
| 2026-05-08 21:18 | 47.38641 | 5.09769 | 36050 ft | 463 kts | 356° |
| 2026-05-08 21:18 | 47.41874 | 5.09783 | 35404 ft | 465 kts | 356° |
| 2026-05-08 21:18 | 47.45115 | 5.09797 | 34747 ft | 467 kts | 356° |
| 2026-05-08 21:18 | 47.48362 | 5.09812 | 34128 ft | 468 kts | 355° |
| 2026-05-08 21:19 | 47.51632 | 5.09825 | 33532 ft | 467 kts | 355° |
| 2026-05-08 21:19 | 47.54861 | 5.09530 | 32878 ft | 461 kts | 347° |
| 2026-05-08 21:19 | 47.57963 | 5.08478 | 32183 ft | 456 kts | 338° |
| 2026-05-08 21:19 | 47.60829 | 5.06666 | 31623 ft | 453 kts | 328° |
| 2026-05-08 21:20 | 47.63458 | 5.04110 | 30707 ft | 451 kts | 320° |
| 2026-05-08 21:20 | 47.65893 | 5.01148 | 29894 ft | 453 kts | 319° |
| 2026-05-08 21:20 | 47.68298 | 4.98120 | 29187 ft | 452 kts | 318° |
| 2026-05-08 21:20 | 47.70682 | 4.95109 | 28661 ft | 447 kts | 319° |
| 2026-05-08 21:21 | 47.73042 | 4.92130 | 28160 ft | 441 kts | 319° |
| 2026-05-08 21:21 | 47.75367 | 4.89204 | 27766 ft | 434 kts | 319° |
| 2026-05-08 21:21 | 47.77615 | 4.86356 | 27474 ft | 425 kts | 318° |
| 2026-05-08 21:21 | 47.79848 | 4.83515 | 27170 ft | 420 kts | 318° |
| 2026-05-08 21:22 | 47.82068 | 4.80689 | 26843 ft | 420 kts | 318° |
| 2026-05-08 21:22 | 47.84284 | 4.77868 | 26546 ft | 420 kts | 318° |
| 2026-05-08 21:22 | 47.86504 | 4.75040 | 26241 ft | 418 kts | 318° |
| 2026-05-08 21:22 | 47.88712 | 4.72226 | 25933 ft | 416 kts | 318° |
| 2026-05-08 21:23 | 47.90907 | 4.69425 | 25630 ft | 415 kts | 318° |
| 2026-05-08 21:23 | 47.93096 | 4.66629 | 25346 ft | 413 kts | 318° |
| 2026-05-08 21:23 | 47.95247 | 4.63879 | 25022 ft | 411 kts | 319° |
| 2026-05-08 21:23 | 47.97418 | 4.61100 | 24737 ft | 410 kts | 319° |
| 2026-05-08 21:24 | 47.99583 | 4.58325 | 24423 ft | 408 kts | 319° |
| 2026-05-08 21:24 | 48.01739 | 4.55559 | 24117 ft | 407 kts | 319° |
| 2026-05-08 21:24 | 48.03882 | 4.52806 | 23808 ft | 405 kts | 319° |
| 2026-05-08 21:24 | 48.06019 | 4.50059 | 23501 ft | 404 kts | 319° |
| 2026-05-08 21:25 | 48.08149 | 4.47317 | 23182 ft | 402 kts | 319° |
| 2026-05-08 21:25 | 48.10240 | 4.44622 | 22910 ft | 401 kts | 318° |
| 2026-05-08 21:25 | 48.12353 | 4.41896 | 22590 ft | 399 kts | 318° |
| 2026-05-08 21:25 | 48.14453 | 4.39183 | 22316 ft | 398 kts | 319° |
| 2026-05-08 21:26 | 48.16544 | 4.36481 | 22009 ft | 396 kts | 318° |
| 2026-05-08 21:26 | 48.18621 | 4.33792 | 21717 ft | 394 kts | 318° |
| 2026-05-08 21:26 | 48.20687 | 4.31114 | 21429 ft | 392 kts | 318° |
| 2026-05-08 21:26 | 48.22749 | 4.28438 | 21140 ft | 391 kts | 318° |
| 2026-05-08 21:27 | 48.24811 | 4.25759 | 20847 ft | 391 kts | 317° |
| 2026-05-08 21:27 | 48.26726 | 4.22949 | 20568 ft | 390 kts | 310° |
| 2026-05-08 21:27 | 48.28478 | 4.19858 | 20288 ft | 388 kts | 308° |
| 2026-05-08 21:27 | 48.30193 | 4.16727 | 20006 ft | 387 kts | 308° |
| 2026-05-08 21:28 | 48.31895 | 4.13611 | 19728 ft | 385 kts | 308° |
| 2026-05-08 21:28 | 48.33595 | 4.10502 | 19466 ft | 382 kts | 308° |
| 2026-05-08 21:28 | 48.35268 | 4.07446 | 19226 ft | 374 kts | 308° |
| 2026-05-08 21:28 | 48.36897 | 4.04476 | 18916 ft | 374 kts | 308° |
| 2026-05-08 21:29 | 48.38552 | 4.01442 | 18638 ft | 376 kts | 308° |
| 2026-05-08 21:29 | 48.40201 | 3.98419 | 18353 ft | 371 kts | 308° |
| 2026-05-08 21:29 | 48.41844 | 3.95402 | 18054 ft | 372 kts | 308° |
| 2026-05-08 21:29 | 48.43494 | 3.92371 | 17796 ft | 371 kts | 308° |
| 2026-05-08 21:30 | 48.45058 | 3.89300 | 17641 ft | 373 kts | 304° |
| 2026-05-08 21:30 | 48.46565 | 3.86084 | 17375 ft | 375 kts | 303° |
| 2026-05-08 21:30 | 48.48036 | 3.82903 | 17106 ft | 373 kts | 303° |
| 2026-05-08 21:30 | 48.49514 | 3.79676 | 16852 ft | 372 kts | 303° |
| 2026-05-08 21:31 | 48.50982 | 3.76452 | 16585 ft | 372 kts | 303° |
| 2026-05-08 21:31 | 48.52438 | 3.73240 | 16321 ft | 371 kts | 303° |
| 2026-05-08 21:31 | 48.53895 | 3.70020 | 16079 ft | 370 kts | 303° |
| 2026-05-08 21:31 | 48.55326 | 3.66849 | 15836 ft | 369 kts | 303° |
| 2026-05-08 21:32 | 48.56769 | 3.63647 | 15577 ft | 368 kts | 303° |
| 2026-05-08 21:32 | 48.58204 | 3.60458 | 15321 ft | 367 kts | 303° |
| 2026-05-08 21:32 | 48.59644 | 3.57254 | 15111 ft | 366 kts | 303° |
| 2026-05-08 21:32 | 48.61077 | 3.54061 | 15065 ft | 368 kts | 303° |
| 2026-05-08 21:33 | 48.62514 | 3.50855 | 15063 ft | 369 kts | 303° |
| 2026-05-08 21:33 | 48.63956 | 3.47633 | 14895 ft | 369 kts | 303° |
| 2026-05-08 21:33 | 48.65389 | 3.44429 | 14645 ft | 368 kts | 303° |
| 2026-05-08 21:33 | 48.66821 | 3.41223 | 14413 ft | 367 kts | 303° |
| 2026-05-08 21:34 | 48.67855 | 3.38907 | 14235 ft | 366 kts | 303° |
| 2026-05-08 21:34 | 48.69275 | 3.35721 | 13992 ft | 366 kts | 303° |
| 2026-05-08 21:34 | 48.70699 | 3.32521 | 13750 ft | 365 kts | 303° |
| 2026-05-08 21:34 | 48.72112 | 3.29344 | 13472 ft | 363 kts | 303° |
| 2026-05-08 21:35 | 48.73522 | 3.26171 | 13217 ft | 362 kts | 302° |
| 2026-05-08 21:35 | 48.74924 | 3.23012 | 13073 ft | 359 kts | 302° |
| 2026-05-08 21:35 | 48.76313 | 3.19874 | 13066 ft | 360 kts | 302° |
| 2026-05-08 21:35 | 48.77712 | 3.16714 | 13067 ft | 360 kts | 302° |
| 2026-05-08 21:36 | 48.79086 | 3.13604 | 13069 ft | 360 kts | 302° |
| 2026-05-08 21:36 | 48.80478 | 3.10453 | 13072 ft | 360 kts | 302° |
| 2026-05-08 21:36 | 48.81869 | 3.07299 | 13069 ft | 360 kts | 302° |
| 2026-05-08 21:36 | 48.83218 | 3.04237 | 13071 ft | 360 kts | 302° |
| 2026-05-08 21:37 | 48.84672 | 3.01149 | 13068 ft | 360 kts | 308° |
| 2026-05-08 21:37 | 48.86325 | 2.98280 | 13066 ft | 361 kts | 311° |
| 2026-05-08 21:37 | 48.88022 | 2.95471 | 13072 ft | 361 kts | 311° |
| 2026-05-08 21:37 | 48.89724 | 2.92662 | 13073 ft | 361 kts | 311° |
| 2026-05-08 21:38 | 48.91399 | 2.89872 | 13074 ft | 361 kts | 310° |
| 2026-05-08 21:38 | 48.92828 | 2.86746 | 13072 ft | 359 kts | 294° |
| 2026-05-08 21:38 | 48.93511 | 2.83134 | 13074 ft | 355 kts | 274° |
| 2026-05-08 21:38 | 48.93486 | 2.79397 | 13076 ft | 355 kts | 265° |
| 2026-05-08 21:39 | 48.93282 | 2.75676 | 12909 ft | 348 kts | 264° |
| 2026-05-08 21:39 | 48.93073 | 2.72060 | 12728 ft | 338 kts | 264° |
| 2026-05-08 21:39 | 48.92877 | 2.68573 | 12530 ft | 329 kts | 264° |
| 2026-05-08 21:39 | 48.92688 | 2.65149 | 12366 ft | 320 kts | 264° |
| 2026-05-08 21:40 | 48.92505 | 2.61806 | 12220 ft | 312 kts | 264° |
| 2026-05-08 21:40 | 48.92330 | 2.58601 | 12059 ft | 305 kts | 264° |
| 2026-05-08 21:40 | 48.92153 | 2.55370 | 11897 ft | 298 kts | 264° |
| 2026-05-08 21:41 | 48.91818 | 2.49267 | 11461 ft | 289 kts | 264° |
| 2026-05-08 21:41 | 48.91649 | 2.46205 | 11263 ft | 282 kts | 264° |
| 2026-05-08 21:41 | 48.91494 | 2.43334 | 11018 ft | 268 kts | 264° |
| 2026-05-08 21:41 | 48.91339 | 2.40544 | 10717 ft | 257 kts | 264° |
| 2026-05-08 21:42 | 48.91189 | 2.37893 | 10317 ft | 252 kts | 264° |
| 2026-05-08 21:42 | 48.91039 | 2.35259 | 9885 ft | 248 kts | 264° |
| 2026-05-08 21:42 | 48.90894 | 2.32700 | 9448 ft | 245 kts | 264° |
| 2026-05-08 21:42 | 48.90746 | 2.30090 | 8956 ft | 244 kts | 264° |
| 2026-05-08 21:43 | 48.90600 | 2.27521 | 8483 ft | 243 kts | 264° |
| 2026-05-08 21:43 | 48.90503 | 2.25822 | 8174 ft | 242 kts | 264° |
| 2026-05-08 21:43 | 48.90357 | 2.23279 | 7717 ft | 241 kts | 264° |
| 2026-05-08 21:43 | 48.90211 | 2.20741 | 7258 ft | 240 kts | 264° |
| 2026-05-08 21:44 | 48.90066 | 2.18215 | 6812 ft | 238 kts | 264° |
| 2026-05-08 21:44 | 48.89939 | 2.16038 | 6436 ft | 237 kts | 264° |
| 2026-05-08 21:44 | 48.89796 | 2.13553 | 6123 ft | 234 kts | 264° |
| 2026-05-08 21:44 | 48.89657 | 2.11096 | 6077 ft | 237 kts | 265° |
| 2026-05-08 21:45 | 48.89522 | 2.08609 | 6076 ft | 235 kts | 264° |
| 2026-05-08 21:45 | 48.89386 | 2.06131 | 5970 ft | 234 kts | 265° |
| 2026-05-08 21:45 | 48.89249 | 2.03655 | 5655 ft | 236 kts | 264° |
| 2026-05-08 21:45 | 48.89197 | 2.01147 | 5312 ft | 239 kts | 276° |
| 2026-05-08 21:46 | 48.89826 | 1.98843 | 5088 ft | 237 kts | 310° |
| 2026-05-08 21:46 | 48.91154 | 1.97415 | 5076 ft | 237 kts | 342° |
| 2026-05-08 21:46 | 48.92759 | 1.97238 | 5072 ft | 236 kts | 14° |
| 2026-05-08 21:46 | 48.94209 | 1.98361 | 5031 ft | 235 kts | 45° |
| 2026-05-08 21:47 | 48.95144 | 2.00365 | 5002 ft | 233 kts | 64° |
| 2026-05-08 21:47 | 48.95789 | 2.02641 | 4993 ft | 234 kts | 70° |
| 2026-05-08 21:47 | 48.96242 | 2.05014 | 4995 ft | 234 kts | 76° |
| 2026-05-08 21:47 | 48.96564 | 2.07448 | 4993 ft | 234 kts | 82° |
| 2026-05-08 21:48 | 48.96760 | 2.09913 | 4996 ft | 234 kts | 85° |
| 2026-05-08 21:48 | 48.96906 | 2.12382 | 4994 ft | 234 kts | 86° |
| 2026-05-08 21:48 | 48.97037 | 2.14843 | 4993 ft | 233 kts | 86° |
| 2026-05-08 21:48 | 48.97169 | 2.17278 | 4994 ft | 233 kts | 85° |
| 2026-05-08 21:49 | 48.97305 | 2.19726 | 4985 ft | 228 kts | 86° |
| 2026-05-08 21:49 | 48.97439 | 2.22053 | 4862 ft | 215 kts | 85° |
| 2026-05-08 21:49 | 48.97566 | 2.24276 | 4612 ft | 207 kts | 86° |
| 2026-05-08 21:49 | 48.97678 | 2.26431 | 4298 ft | 202 kts | 86° |
| 2026-05-08 21:50 | 48.97790 | 2.28537 | 3996 ft | 196 kts | 86° |
| 2026-05-08 21:50 | 48.97899 | 2.30558 | 3772 ft | 187 kts | 85° |
| 2026-05-08 21:50 | 48.98003 | 2.32506 | 3489 ft | 181 kts | 86° |
| 2026-05-08 21:50 | 48.98102 | 2.34368 | 3228 ft | 179 kts | 85° |
| 2026-05-08 21:51 | 48.98202 | 2.36221 | 2977 ft | 171 kts | 86° |
| 2026-05-08 21:51 | 48.98296 | 2.37971 | 2761 ft | 163 kts | 85° |
| 2026-05-08 21:51 | 48.98386 | 2.39670 | 2546 ft | 160 kts | 85° |
| 2026-05-08 21:51 | 48.98477 | 2.41362 | 2343 ft | 159 kts | 85° |
| 2026-05-08 21:52 | 48.98565 | 2.43020 | 2113 ft | 153 kts | 85° |
| 2026-05-08 21:52 | 48.98650 | 2.44592 | 1913 ft | 146 kts | 85° |
| 2026-05-08 21:52 | 48.98730 | 2.46089 | 1732 ft | 139 kts | 86° |
| 2026-05-08 21:52 | 48.98803 | 2.47558 | 1544 ft | 140 kts | 86° |
| 2026-05-08 21:53 | 48.98854 | 2.49032 | 1366 ft | 139 kts | 86° |
| 2026-05-08 21:53 | 48.98919 | 2.50504 | 1158 ft | 139 kts | 84° |
| 2026-05-08 21:53 | 48.99017 | 2.51953 | 963 ft | 138 kts | 82° |
| 2026-05-08 21:53 | 48.99110 | 2.53408 | 789 ft | 137 kts | 83° |
| 2026-05-08 21:54 | 48.99191 | 2.54868 | 593 ft | 138 kts | 83° |
| 2026-05-08 21:54 | 48.99274 | 2.56308 | 421 ft | 136 kts | 82° |
| 2026-05-08 21:54 | 48.99352 | 2.57695 | 364 ft | 121 kts | 84° |
| 2026-05-08 21:54 | 48.99407 | 2.58716 | 362 ft | 70 kts | 85° |
| 2026-05-08 21:55 | 48.99459 | 2.59228 | 360 ft | 39 kts | 67° |
| 2026-05-08 21:55 | 48.99542 | 2.59502 | 365 ft | 20 kts | 65° |
| 2026-05-08 21:55 | 48.99593 | 2.59660 | 367 ft | 13 kts | 52° |
| 2026-05-08 21:56 | 48.99689 | 2.59687 | 363 ft | 2 kts | 356° |
| 2026-05-08 21:56 | 48.99690 | 2.59687 | 363 ft | 0 kts | 356° |
| 2026-05-08 21:56 | 48.99738 | 2.59681 | 361 ft | 13 kts | 355° |
| 2026-05-08 21:57 | 48.99854 | 2.59665 | 360 ft | 17 kts | 355° |
| 2026-05-08 21:57 | 48.99945 | 2.59655 | 359 ft | 4 kts | 356° |
| 2026-05-08 21:57 | 48.99946 | 2.59655 | 361 ft | 0 kts | 356° |
| 2026-05-08 21:58 | 48.99949 | 2.59655 | 361 ft | 3 kts | 356° |
| 2026-05-08 21:58 | 49.00016 | 2.59648 | 364 ft | 16 kts | 356° |
| 2026-05-08 21:58 | 49.00080 | 2.59563 | 364 ft | 13 kts | 274° |
| 2026-05-08 21:59 | 49.00069 | 2.59416 | 360 ft | 15 kts | 265° |
| 2026-05-08 21:59 | 49.00057 | 2.59189 | 364 ft | 29 kts | 265° |
| 2026-05-08 21:59 | 49.00040 | 2.58870 | 358 ft | 30 kts | 265° |
| 2026-05-08 21:59 | 49.00026 | 2.58573 | 358 ft | 22 kts | 265° |
| 2026-05-08 22:00 | 49.00013 | 2.58336 | 365 ft | 23 kts | 265° |
| 2026-05-08 22:00 | 49.00001 | 2.58089 | 365 ft | 24 kts | 264° |
| 2026-05-08 22:00 | 48.99986 | 2.57832 | 365 ft | 24 kts | 266° |
| 2026-05-08 22:00 | 48.99972 | 2.57572 | 362 ft | 25 kts | 265° |
| 2026-05-08 22:01 | 48.99959 | 2.57311 | 366 ft | 25 kts | 265° |
| 2026-05-08 22:01 | 48.99946 | 2.57055 | 364 ft | 24 kts | 265° |
| 2026-05-08 22:01 | 48.99932 | 2.56796 | 358 ft | 25 kts | 264° |
| 2026-05-08 22:01 | 48.99916 | 2.56534 | 365 ft | 25 kts | 265° |
| 2026-05-08 22:02 | 48.99904 | 2.56295 | 364 ft | 26 kts | 265° |
| 2026-05-08 22:02 | 48.99892 | 2.56054 | 358 ft | 20 kts | 266° |
| 2026-05-08 22:02 | 48.99907 | 2.55840 | 365 ft | 18 kts | 284° |
| 2026-05-08 22:02 | 48.99972 | 2.55688 | 364 ft | 18 kts | 329° |
| 2026-05-08 22:03 | 49.00088 | 2.55626 | 367 ft | 18 kts | 343° |
| 2026-05-08 22:03 | 49.00209 | 2.55572 | 363 ft | 19 kts | 344° |
| 2026-05-08 22:03 | 49.00338 | 2.55517 | 366 ft | 19 kts | 345° |
| 2026-05-08 22:03 | 49.00467 | 2.55466 | 361 ft | 20 kts | 345° |
| 2026-05-08 22:04 | 49.00599 | 2.55404 | 366 ft | 20 kts | 342° |
| 2026-05-08 22:04 | 49.00733 | 2.55346 | 365 ft | 20 kts | 344° |
| 2026-05-08 22:04 | 49.00874 | 2.55287 | 363 ft | 21 kts | 345° |
| 2026-05-08 22:04 | 49.01013 | 2.55226 | 364 ft | 21 kts | 343° |
| 2026-05-08 22:05 | 49.01150 | 2.55166 | 366 ft | 18 kts | 345° |
| 2026-05-08 22:05 | 49.01244 | 2.55226 | 362 ft | 16 kts | 69° |
| 2026-05-08 22:05 | 49.01255 | 2.55381 | 365 ft | 11 kts | 89° |
| 2026-05-08 22:05 | 49.01239 | 2.55398 | 366 ft | 3 kts | 175° |
| 2026-05-08 22:06 | 49.01195 | 2.55398 | 362 ft | 4 kts | 178° |
| 2026-05-08 22:06 | 49.01179 | 2.55400 | 358 ft | 0 kts | 175° |